<?xml version="1.0" encoding="UTF-8" standalone="no" ?>
<gpx xmlns="http://www.topografix.com/GPX/1/1" xmlns:xsi="http://www.w3.org/2001/XMLSchema-instance" xsi:schemaLocation="http://www.topografix.com/GPX/1/1 http://www.topografix.com/GPX/1/1/gpx.xsd" version="1.1" creator="VisuGPX - https://www.visugpx.com">
  <metadata>
    <name>première sortie béarnaise</name>
    <desc><![CDATA[ça pique un peu quand même après 3 semaines sans activités]]></desc>
  </metadata>
  <trk>
    <name><![CDATA[Tracé actuel: 05 JAN 2017 11:22]]></name>
    <trkseg>
      <trkpt lat="43.40083" lon="-0.57979">
        <ele>122.22</ele>
        <time>2017-01-05T10:22:09Z</time>
      </trkpt>
      <trkpt lat="43.40084" lon="-0.57979">
        <ele>121.26</ele>
        <time>2017-01-05T10:22:22Z</time>
      </trkpt>
      <trkpt lat="43.40086" lon="-0.57978">
        <ele>121.26</ele>
        <time>2017-01-05T10:22:24Z</time>
      </trkpt>
      <trkpt lat="43.40095" lon="-0.57978">
        <ele>121.74</ele>
        <time>2017-01-05T10:22:30Z</time>
      </trkpt>
      <trkpt lat="43.40044" lon="-0.57997">
        <ele>77.52</ele>
        <time>2017-01-05T10:27:32Z</time>
      </trkpt>
      <trkpt lat="43.4003" lon="-0.58">
        <ele>61.18</ele>
        <time>2017-01-05T10:27:38Z</time>
      </trkpt>
      <trkpt lat="43.40083" lon="-0.57979">
        <ele>129.43</ele>
        <time>2017-01-05T10:29:18Z</time>
      </trkpt>
      <trkpt lat="43.40083" lon="-0.57975">
        <ele>122.22</ele>
        <time>2017-01-05T10:29:45Z</time>
      </trkpt>
      <trkpt lat="43.40079" lon="-0.57977">
        <ele>120.78</ele>
        <time>2017-01-05T10:29:56Z</time>
      </trkpt>
      <trkpt lat="43.40069" lon="-0.57985">
        <ele>120.78</ele>
        <time>2017-01-05T10:30:19Z</time>
      </trkpt>
    </trkseg>
  </trk>
  <trk>
    <name><![CDATA[Tracé actuel: 07 JAN 2017 08:52]]></name>
    <trkseg>
      <trkpt lat="43.40066" lon="-0.57987">
        <ele>98.19</ele>
        <time>2017-01-07T07:52:21Z</time>
      </trkpt>
      <trkpt lat="43.40086" lon="-0.58002">
        <ele>108.77</ele>
        <time>2017-01-07T07:52:38Z</time>
      </trkpt>
      <trkpt lat="43.40085" lon="-0.58003">
        <ele>109.25</ele>
        <time>2017-01-07T07:52:39Z</time>
      </trkpt>
      <trkpt lat="43.40077" lon="-0.58011">
        <ele>110.69</ele>
        <time>2017-01-07T07:52:43Z</time>
      </trkpt>
      <trkpt lat="43.40076" lon="-0.58014">
        <ele>110.69</ele>
        <time>2017-01-07T07:52:44Z</time>
      </trkpt>
      <trkpt lat="43.40075" lon="-0.58019">
        <ele>111.17</ele>
        <time>2017-01-07T07:52:45Z</time>
      </trkpt>
      <trkpt lat="43.40076" lon="-0.58024">
        <ele>111.65</ele>
        <time>2017-01-07T07:52:46Z</time>
      </trkpt>
      <trkpt lat="43.40077" lon="-0.58029">
        <ele>111.17</ele>
        <time>2017-01-07T07:52:47Z</time>
      </trkpt>
      <trkpt lat="43.40083" lon="-0.58055">
        <ele>110.21</ele>
        <time>2017-01-07T07:52:52Z</time>
      </trkpt>
      <trkpt lat="43.40083" lon="-0.58061">
        <ele>110.21</ele>
        <time>2017-01-07T07:52:53Z</time>
      </trkpt>
      <trkpt lat="43.40085" lon="-0.58067">
        <ele>110.21</ele>
        <time>2017-01-07T07:52:54Z</time>
      </trkpt>
      <trkpt lat="43.40077" lon="-0.58097">
        <ele>109.25</ele>
        <time>2017-01-07T07:53:03Z</time>
      </trkpt>
      <trkpt lat="43.40008" lon="-0.58135">
        <ele>109.73</ele>
        <time>2017-01-07T07:53:21Z</time>
      </trkpt>
      <trkpt lat="43.40001" lon="-0.58139">
        <ele>110.21</ele>
        <time>2017-01-07T07:53:30Z</time>
      </trkpt>
      <trkpt lat="43.39997" lon="-0.5814">
        <ele>108.29</ele>
        <time>2017-01-07T07:53:50Z</time>
      </trkpt>
      <trkpt lat="43.39994" lon="-0.58139">
        <ele>107.81</ele>
        <time>2017-01-07T07:53:51Z</time>
      </trkpt>
      <trkpt lat="43.39991" lon="-0.58136">
        <ele>107.81</ele>
        <time>2017-01-07T07:53:52Z</time>
      </trkpt>
      <trkpt lat="43.3999" lon="-0.58133">
        <ele>107.32</ele>
        <time>2017-01-07T07:53:53Z</time>
      </trkpt>
      <trkpt lat="43.39988" lon="-0.58128">
        <ele>107.32</ele>
        <time>2017-01-07T07:53:54Z</time>
      </trkpt>
      <trkpt lat="43.39986" lon="-0.58124">
        <ele>106.84</ele>
        <time>2017-01-07T07:53:55Z</time>
      </trkpt>
      <trkpt lat="43.39958" lon="-0.58041">
        <ele>105.88</ele>
        <time>2017-01-07T07:54:11Z</time>
      </trkpt>
      <trkpt lat="43.39917" lon="-0.57924">
        <ele>105.88</ele>
        <time>2017-01-07T07:54:31Z</time>
      </trkpt>
      <trkpt lat="43.3988" lon="-0.57852">
        <ele>107.32</ele>
        <time>2017-01-07T07:54:43Z</time>
      </trkpt>
      <trkpt lat="43.39873" lon="-0.57842">
        <ele>107.32</ele>
        <time>2017-01-07T07:54:45Z</time>
      </trkpt>
      <trkpt lat="43.39868" lon="-0.57838">
        <ele>107.32</ele>
        <time>2017-01-07T07:54:46Z</time>
      </trkpt>
      <trkpt lat="43.39863" lon="-0.57835">
        <ele>107.32</ele>
        <time>2017-01-07T07:54:47Z</time>
      </trkpt>
      <trkpt lat="43.39843" lon="-0.57823">
        <ele>107.81</ele>
        <time>2017-01-07T07:54:51Z</time>
      </trkpt>
      <trkpt lat="43.39839" lon="-0.57818">
        <ele>107.81</ele>
        <time>2017-01-07T07:54:52Z</time>
      </trkpt>
      <trkpt lat="43.39836" lon="-0.57811">
        <ele>107.81</ele>
        <time>2017-01-07T07:54:53Z</time>
      </trkpt>
      <trkpt lat="43.39834" lon="-0.57805">
        <ele>107.81</ele>
        <time>2017-01-07T07:54:54Z</time>
      </trkpt>
      <trkpt lat="43.39834" lon="-0.57797">
        <ele>107.81</ele>
        <time>2017-01-07T07:54:55Z</time>
      </trkpt>
      <trkpt lat="43.39835" lon="-0.5779">
        <ele>107.81</ele>
        <time>2017-01-07T07:54:56Z</time>
      </trkpt>
      <trkpt lat="43.39837" lon="-0.57783">
        <ele>108.29</ele>
        <time>2017-01-07T07:54:57Z</time>
      </trkpt>
      <trkpt lat="43.39839" lon="-0.57776">
        <ele>108.29</ele>
        <time>2017-01-07T07:54:58Z</time>
      </trkpt>
      <trkpt lat="43.39842" lon="-0.5777">
        <ele>107.81</ele>
        <time>2017-01-07T07:54:59Z</time>
      </trkpt>
      <trkpt lat="43.39854" lon="-0.57745">
        <ele>107.32</ele>
        <time>2017-01-07T07:55:03Z</time>
      </trkpt>
      <trkpt lat="43.39859" lon="-0.57739">
        <ele>107.32</ele>
        <time>2017-01-07T07:55:04Z</time>
      </trkpt>
      <trkpt lat="43.39867" lon="-0.57734">
        <ele>107.32</ele>
        <time>2017-01-07T07:55:06Z</time>
      </trkpt>
      <trkpt lat="43.39875" lon="-0.57731">
        <ele>106.84</ele>
        <time>2017-01-07T07:55:07Z</time>
      </trkpt>
      <trkpt lat="43.39965" lon="-0.57693">
        <ele>107.81</ele>
        <time>2017-01-07T07:55:24Z</time>
      </trkpt>
      <trkpt lat="43.39968" lon="-0.5769">
        <ele>107.81</ele>
        <time>2017-01-07T07:55:25Z</time>
      </trkpt>
      <trkpt lat="43.39972" lon="-0.57682">
        <ele>107.81</ele>
        <time>2017-01-07T07:55:26Z</time>
      </trkpt>
      <trkpt lat="43.39973" lon="-0.57677">
        <ele>107.81</ele>
        <time>2017-01-07T07:55:27Z</time>
      </trkpt>
      <trkpt lat="43.39973" lon="-0.57671">
        <ele>107.81</ele>
        <time>2017-01-07T07:55:28Z</time>
      </trkpt>
      <trkpt lat="43.39972" lon="-0.57662">
        <ele>107.81</ele>
        <time>2017-01-07T07:55:29Z</time>
      </trkpt>
      <trkpt lat="43.39971" lon="-0.57656">
        <ele>107.81</ele>
        <time>2017-01-07T07:55:30Z</time>
      </trkpt>
      <trkpt lat="43.39959" lon="-0.57568">
        <ele>108.29</ele>
        <time>2017-01-07T07:55:42Z</time>
      </trkpt>
      <trkpt lat="43.39942" lon="-0.57436">
        <ele>108.29</ele>
        <time>2017-01-07T07:56:00Z</time>
      </trkpt>
      <trkpt lat="43.39934" lon="-0.57359">
        <ele>108.77</ele>
        <time>2017-01-07T07:56:11Z</time>
      </trkpt>
      <trkpt lat="43.39932" lon="-0.57347">
        <ele>109.25</ele>
        <time>2017-01-07T07:56:13Z</time>
      </trkpt>
      <trkpt lat="43.39932" lon="-0.5734">
        <ele>109.25</ele>
        <time>2017-01-07T07:56:14Z</time>
      </trkpt>
      <trkpt lat="43.39933" lon="-0.57331">
        <ele>109.73</ele>
        <time>2017-01-07T07:56:15Z</time>
      </trkpt>
      <trkpt lat="43.39932" lon="-0.57327">
        <ele>109.73</ele>
        <time>2017-01-07T07:56:16Z</time>
      </trkpt>
      <trkpt lat="43.39932" lon="-0.57321">
        <ele>109.73</ele>
        <time>2017-01-07T07:56:17Z</time>
      </trkpt>
      <trkpt lat="43.39931" lon="-0.57314">
        <ele>109.73</ele>
        <time>2017-01-07T07:56:18Z</time>
      </trkpt>
      <trkpt lat="43.39931" lon="-0.57308">
        <ele>110.21</ele>
        <time>2017-01-07T07:56:19Z</time>
      </trkpt>
      <trkpt lat="43.39916" lon="-0.57173">
        <ele>112.61</ele>
        <time>2017-01-07T07:56:39Z</time>
      </trkpt>
      <trkpt lat="43.39904" lon="-0.57039">
        <ele>114.53</ele>
        <time>2017-01-07T07:57:01Z</time>
      </trkpt>
      <trkpt lat="43.39906" lon="-0.56992">
        <ele>115.5</ele>
        <time>2017-01-07T07:57:11Z</time>
      </trkpt>
      <trkpt lat="43.39922" lon="-0.5694">
        <ele>118.86</ele>
        <time>2017-01-07T07:57:24Z</time>
      </trkpt>
      <trkpt lat="43.39928" lon="-0.56904">
        <ele>118.38</ele>
        <time>2017-01-07T07:57:31Z</time>
      </trkpt>
      <trkpt lat="43.39929" lon="-0.56881">
        <ele>118.38</ele>
        <time>2017-01-07T07:57:35Z</time>
      </trkpt>
      <trkpt lat="43.39938" lon="-0.56785">
        <ele>122.22</ele>
        <time>2017-01-07T07:57:53Z</time>
      </trkpt>
      <trkpt lat="43.39938" lon="-0.56715">
        <ele>124.63</ele>
        <time>2017-01-07T07:58:10Z</time>
      </trkpt>
      <trkpt lat="43.39967" lon="-0.5667">
        <ele>127.03</ele>
        <time>2017-01-07T07:58:26Z</time>
      </trkpt>
      <trkpt lat="43.39984" lon="-0.56622">
        <ele>130.88</ele>
        <time>2017-01-07T07:58:40Z</time>
      </trkpt>
      <trkpt lat="43.39992" lon="-0.56561">
        <ele>133.76</ele>
        <time>2017-01-07T07:58:56Z</time>
      </trkpt>
      <trkpt lat="43.40001" lon="-0.56479">
        <ele>135.2</ele>
        <time>2017-01-07T07:59:15Z</time>
      </trkpt>
      <trkpt lat="43.40012" lon="-0.56365">
        <ele>134.72</ele>
        <time>2017-01-07T07:59:37Z</time>
      </trkpt>
      <trkpt lat="43.40023" lon="-0.56265">
        <ele>135.2</ele>
        <time>2017-01-07T07:59:54Z</time>
      </trkpt>
      <trkpt lat="43.40037" lon="-0.56139">
        <ele>135.2</ele>
        <time>2017-01-07T08:00:13Z</time>
      </trkpt>
      <trkpt lat="43.40051" lon="-0.5601">
        <ele>135.68</ele>
        <time>2017-01-07T08:00:32Z</time>
      </trkpt>
      <trkpt lat="43.40062" lon="-0.55897">
        <ele>135.68</ele>
        <time>2017-01-07T08:00:48Z</time>
      </trkpt>
      <trkpt lat="43.40077" lon="-0.5577">
        <ele>137.13</ele>
        <time>2017-01-07T08:01:06Z</time>
      </trkpt>
      <trkpt lat="43.40079" lon="-0.55763">
        <ele>137.61</ele>
        <time>2017-01-07T08:01:07Z</time>
      </trkpt>
      <trkpt lat="43.40081" lon="-0.55749">
        <ele>137.61</ele>
        <time>2017-01-07T08:01:08Z</time>
      </trkpt>
      <trkpt lat="43.40082" lon="-0.55742">
        <ele>137.61</ele>
        <time>2017-01-07T08:01:09Z</time>
      </trkpt>
      <trkpt lat="43.40095" lon="-0.55628">
        <ele>140.01</ele>
        <time>2017-01-07T08:01:27Z</time>
      </trkpt>
      <trkpt lat="43.40105" lon="-0.55554">
        <ele>141.93</ele>
        <time>2017-01-07T08:01:42Z</time>
      </trkpt>
      <trkpt lat="43.40118" lon="-0.5548">
        <ele>143.85</ele>
        <time>2017-01-07T08:01:57Z</time>
      </trkpt>
      <trkpt lat="43.40135" lon="-0.55389">
        <ele>146.26</ele>
        <time>2017-01-07T08:02:16Z</time>
      </trkpt>
      <trkpt lat="43.40153" lon="-0.55288">
        <ele>145.78</ele>
        <time>2017-01-07T08:02:34Z</time>
      </trkpt>
      <trkpt lat="43.4018" lon="-0.55141">
        <ele>142.41</ele>
        <time>2017-01-07T08:02:54Z</time>
      </trkpt>
      <trkpt lat="43.40217" lon="-0.54984">
        <ele>139.53</ele>
        <time>2017-01-07T08:03:15Z</time>
      </trkpt>
      <trkpt lat="43.40254" lon="-0.54876">
        <ele>139.05</ele>
        <time>2017-01-07T08:03:32Z</time>
      </trkpt>
      <trkpt lat="43.40297" lon="-0.54752">
        <ele>140.49</ele>
        <time>2017-01-07T08:03:52Z</time>
      </trkpt>
      <trkpt lat="43.40337" lon="-0.54639">
        <ele>142.41</ele>
        <time>2017-01-07T08:04:11Z</time>
      </trkpt>
      <trkpt lat="43.4038" lon="-0.54551">
        <ele>144.34</ele>
        <time>2017-01-07T08:04:28Z</time>
      </trkpt>
      <trkpt lat="43.40427" lon="-0.54468">
        <ele>146.26</ele>
        <time>2017-01-07T08:04:45Z</time>
      </trkpt>
      <trkpt lat="43.40449" lon="-0.54363">
        <ele>147.22</ele>
        <time>2017-01-07T08:05:02Z</time>
      </trkpt>
      <trkpt lat="43.40474" lon="-0.54248">
        <ele>150.1</ele>
        <time>2017-01-07T08:05:21Z</time>
      </trkpt>
      <trkpt lat="43.40499" lon="-0.54139">
        <ele>152.03</ele>
        <time>2017-01-07T08:05:40Z</time>
      </trkpt>
      <trkpt lat="43.40523" lon="-0.54028">
        <ele>152.99</ele>
        <time>2017-01-07T08:05:59Z</time>
      </trkpt>
      <trkpt lat="43.40536" lon="-0.53955">
        <ele>152.51</ele>
        <time>2017-01-07T08:06:11Z</time>
      </trkpt>
      <trkpt lat="43.40553" lon="-0.53853">
        <ele>153.47</ele>
        <time>2017-01-07T08:06:29Z</time>
      </trkpt>
      <trkpt lat="43.40559" lon="-0.53832">
        <ele>153.47</ele>
        <time>2017-01-07T08:06:34Z</time>
      </trkpt>
      <trkpt lat="43.40561" lon="-0.53832">
        <ele>153.47</ele>
        <time>2017-01-07T08:06:35Z</time>
      </trkpt>
      <trkpt lat="43.40561" lon="-0.53836">
        <ele>153.47</ele>
        <time>2017-01-07T08:06:36Z</time>
      </trkpt>
      <trkpt lat="43.4056" lon="-0.53839">
        <ele>153.47</ele>
        <time>2017-01-07T08:06:37Z</time>
      </trkpt>
      <trkpt lat="43.40559" lon="-0.53843">
        <ele>153.47</ele>
        <time>2017-01-07T08:06:38Z</time>
      </trkpt>
      <trkpt lat="43.40558" lon="-0.53847">
        <ele>153.95</ele>
        <time>2017-01-07T08:06:39Z</time>
      </trkpt>
      <trkpt lat="43.40553" lon="-0.53857">
        <ele>153.95</ele>
        <time>2017-01-07T08:06:42Z</time>
      </trkpt>
      <trkpt lat="43.40551" lon="-0.53858">
        <ele>153.95</ele>
        <time>2017-01-07T08:06:43Z</time>
      </trkpt>
      <trkpt lat="43.40549" lon="-0.53858">
        <ele>153.95</ele>
        <time>2017-01-07T08:06:44Z</time>
      </trkpt>
      <trkpt lat="43.40547" lon="-0.53856">
        <ele>153.47</ele>
        <time>2017-01-07T08:06:45Z</time>
      </trkpt>
      <trkpt lat="43.40544" lon="-0.53855">
        <ele>153.47</ele>
        <time>2017-01-07T08:06:46Z</time>
      </trkpt>
      <trkpt lat="43.40541" lon="-0.53853">
        <ele>153.47</ele>
        <time>2017-01-07T08:06:47Z</time>
      </trkpt>
      <trkpt lat="43.40537" lon="-0.53852">
        <ele>153.47</ele>
        <time>2017-01-07T08:06:48Z</time>
      </trkpt>
      <trkpt lat="43.40534" lon="-0.53852">
        <ele>153.47</ele>
        <time>2017-01-07T08:06:49Z</time>
      </trkpt>
      <trkpt lat="43.40518" lon="-0.53849">
        <ele>152.99</ele>
        <time>2017-01-07T08:06:53Z</time>
      </trkpt>
      <trkpt lat="43.40487" lon="-0.53847">
        <ele>152.99</ele>
        <time>2017-01-07T08:07:03Z</time>
      </trkpt>
      <trkpt lat="43.40487" lon="-0.53846">
        <ele>153.47</ele>
        <time>2017-01-07T08:07:04Z</time>
      </trkpt>
      <trkpt lat="43.40497" lon="-0.53847">
        <ele>153.47</ele>
        <time>2017-01-07T08:07:12Z</time>
      </trkpt>
      <trkpt lat="43.40487" lon="-0.53845">
        <ele>153.47</ele>
        <time>2017-01-07T08:07:19Z</time>
      </trkpt>
      <trkpt lat="43.40494" lon="-0.53844">
        <ele>153.47</ele>
        <time>2017-01-07T08:07:24Z</time>
      </trkpt>
      <trkpt lat="43.40496" lon="-0.53845">
        <ele>153.47</ele>
        <time>2017-01-07T08:07:25Z</time>
      </trkpt>
      <trkpt lat="43.40499" lon="-0.53845">
        <ele>153.47</ele>
        <time>2017-01-07T08:07:26Z</time>
      </trkpt>
      <trkpt lat="43.40542" lon="-0.53854">
        <ele>152.99</ele>
        <time>2017-01-07T08:07:42Z</time>
      </trkpt>
      <trkpt lat="43.40553" lon="-0.53858">
        <ele>153.47</ele>
        <time>2017-01-07T08:07:48Z</time>
      </trkpt>
      <trkpt lat="43.40555" lon="-0.53857">
        <ele>153.47</ele>
        <time>2017-01-07T08:07:49Z</time>
      </trkpt>
      <trkpt lat="43.40555" lon="-0.53854">
        <ele>153.95</ele>
        <time>2017-01-07T08:07:50Z</time>
      </trkpt>
      <trkpt lat="43.40556" lon="-0.53851">
        <ele>153.95</ele>
        <time>2017-01-07T08:07:51Z</time>
      </trkpt>
      <trkpt lat="43.40556" lon="-0.53848">
        <ele>153.95</ele>
        <time>2017-01-07T08:07:52Z</time>
      </trkpt>
      <trkpt lat="43.40557" lon="-0.53844">
        <ele>153.95</ele>
        <time>2017-01-07T08:07:53Z</time>
      </trkpt>
      <trkpt lat="43.40557" lon="-0.5384">
        <ele>153.95</ele>
        <time>2017-01-07T08:07:54Z</time>
      </trkpt>
      <trkpt lat="43.40572" lon="-0.53777">
        <ele>153.95</ele>
        <time>2017-01-07T08:08:10Z</time>
      </trkpt>
      <trkpt lat="43.40606" lon="-0.53764">
        <ele>154.43</ele>
        <time>2017-01-07T08:08:22Z</time>
      </trkpt>
      <trkpt lat="43.4066" lon="-0.53746">
        <ele>155.87</ele>
        <time>2017-01-07T08:08:40Z</time>
      </trkpt>
      <trkpt lat="43.40706" lon="-0.53721">
        <ele>157.79</ele>
        <time>2017-01-07T08:08:57Z</time>
      </trkpt>
      <trkpt lat="43.4075" lon="-0.53697">
        <ele>160.68</ele>
        <time>2017-01-07T08:09:15Z</time>
      </trkpt>
      <trkpt lat="43.40789" lon="-0.53682">
        <ele>164.04</ele>
        <time>2017-01-07T08:09:33Z</time>
      </trkpt>
      <trkpt lat="43.40803" lon="-0.53718">
        <ele>164.04</ele>
        <time>2017-01-07T08:09:47Z</time>
      </trkpt>
      <trkpt lat="43.40816" lon="-0.53759">
        <ele>165.96</ele>
        <time>2017-01-07T08:10:03Z</time>
      </trkpt>
      <trkpt lat="43.40831" lon="-0.53801">
        <ele>168.85</ele>
        <time>2017-01-07T08:10:22Z</time>
      </trkpt>
      <trkpt lat="43.40837" lon="-0.5381">
        <ele>169.33</ele>
        <time>2017-01-07T08:10:27Z</time>
      </trkpt>
      <trkpt lat="43.40839" lon="-0.5381">
        <ele>169.81</ele>
        <time>2017-01-07T08:10:28Z</time>
      </trkpt>
      <trkpt lat="43.40841" lon="-0.5381">
        <ele>169.81</ele>
        <time>2017-01-07T08:10:29Z</time>
      </trkpt>
      <trkpt lat="43.40843" lon="-0.5381">
        <ele>169.81</ele>
        <time>2017-01-07T08:10:30Z</time>
      </trkpt>
      <trkpt lat="43.40844" lon="-0.53809">
        <ele>170.29</ele>
        <time>2017-01-07T08:10:31Z</time>
      </trkpt>
      <trkpt lat="43.40846" lon="-0.53809">
        <ele>170.29</ele>
        <time>2017-01-07T08:10:32Z</time>
      </trkpt>
      <trkpt lat="43.40848" lon="-0.53808">
        <ele>170.77</ele>
        <time>2017-01-07T08:10:33Z</time>
      </trkpt>
      <trkpt lat="43.40875" lon="-0.53798">
        <ele>174.14</ele>
        <time>2017-01-07T08:10:50Z</time>
      </trkpt>
      <trkpt lat="43.40902" lon="-0.53784">
        <ele>178.46</ele>
        <time>2017-01-07T08:11:10Z</time>
      </trkpt>
      <trkpt lat="43.40925" lon="-0.53769">
        <ele>181.35</ele>
        <time>2017-01-07T08:11:29Z</time>
      </trkpt>
      <trkpt lat="43.40932" lon="-0.53767">
        <ele>181.83</ele>
        <time>2017-01-07T08:11:34Z</time>
      </trkpt>
      <trkpt lat="43.40934" lon="-0.53767">
        <ele>182.31</ele>
        <time>2017-01-07T08:11:35Z</time>
      </trkpt>
      <trkpt lat="43.40935" lon="-0.53767">
        <ele>182.79</ele>
        <time>2017-01-07T08:11:36Z</time>
      </trkpt>
      <trkpt lat="43.40936" lon="-0.53767">
        <ele>182.79</ele>
        <time>2017-01-07T08:11:37Z</time>
      </trkpt>
      <trkpt lat="43.40938" lon="-0.53768">
        <ele>183.27</ele>
        <time>2017-01-07T08:11:38Z</time>
      </trkpt>
      <trkpt lat="43.40939" lon="-0.53768">
        <ele>183.27</ele>
        <time>2017-01-07T08:11:39Z</time>
      </trkpt>
      <trkpt lat="43.40941" lon="-0.53768">
        <ele>183.27</ele>
        <time>2017-01-07T08:11:40Z</time>
      </trkpt>
      <trkpt lat="43.40945" lon="-0.53771">
        <ele>184.71</ele>
        <time>2017-01-07T08:11:51Z</time>
      </trkpt>
      <trkpt lat="43.4097" lon="-0.53782">
        <ele>185.19</ele>
        <time>2017-01-07T08:12:10Z</time>
      </trkpt>
      <trkpt lat="43.40993" lon="-0.53792">
        <ele>188.08</ele>
        <time>2017-01-07T08:12:27Z</time>
      </trkpt>
      <trkpt lat="43.41005" lon="-0.53802">
        <ele>191.44</ele>
        <time>2017-01-07T08:12:39Z</time>
      </trkpt>
      <trkpt lat="43.41019" lon="-0.53806">
        <ele>192.4</ele>
        <time>2017-01-07T08:12:49Z</time>
      </trkpt>
      <trkpt lat="43.4102" lon="-0.53805">
        <ele>192.4</ele>
        <time>2017-01-07T08:12:52Z</time>
      </trkpt>
      <trkpt lat="43.41009" lon="-0.53796">
        <ele>192.4</ele>
        <time>2017-01-07T08:13:02Z</time>
      </trkpt>
      <trkpt lat="43.41014" lon="-0.53776">
        <ele>195.77</ele>
        <time>2017-01-07T08:13:16Z</time>
      </trkpt>
      <trkpt lat="43.41015" lon="-0.53776">
        <ele>195.77</ele>
        <time>2017-01-07T08:13:17Z</time>
      </trkpt>
      <trkpt lat="43.41016" lon="-0.53776">
        <ele>196.25</ele>
        <time>2017-01-07T08:13:18Z</time>
      </trkpt>
      <trkpt lat="43.41019" lon="-0.53778">
        <ele>196.25</ele>
        <time>2017-01-07T08:13:21Z</time>
      </trkpt>
      <trkpt lat="43.41033" lon="-0.53783">
        <ele>193.84</ele>
        <time>2017-01-07T08:13:35Z</time>
      </trkpt>
      <trkpt lat="43.41052" lon="-0.53772">
        <ele>196.25</ele>
        <time>2017-01-07T08:13:51Z</time>
      </trkpt>
      <trkpt lat="43.41053" lon="-0.53764">
        <ele>197.69</ele>
        <time>2017-01-07T08:13:56Z</time>
      </trkpt>
      <trkpt lat="43.41065" lon="-0.53764">
        <ele>197.21</ele>
        <time>2017-01-07T08:14:03Z</time>
      </trkpt>
      <trkpt lat="43.41104" lon="-0.53773">
        <ele>195.28</ele>
        <time>2017-01-07T08:14:21Z</time>
      </trkpt>
      <trkpt lat="43.41147" lon="-0.53785">
        <ele>197.21</ele>
        <time>2017-01-07T08:14:40Z</time>
      </trkpt>
      <trkpt lat="43.41182" lon="-0.53794">
        <ele>200.09</ele>
        <time>2017-01-07T08:14:57Z</time>
      </trkpt>
      <trkpt lat="43.41214" lon="-0.53798">
        <ele>202.98</ele>
        <time>2017-01-07T08:15:12Z</time>
      </trkpt>
      <trkpt lat="43.4124" lon="-0.53802">
        <ele>207.3</ele>
        <time>2017-01-07T08:15:26Z</time>
      </trkpt>
      <trkpt lat="43.41266" lon="-0.53809">
        <ele>211.63</ele>
        <time>2017-01-07T08:15:43Z</time>
      </trkpt>
      <trkpt lat="43.41287" lon="-0.53818">
        <ele>217.4</ele>
        <time>2017-01-07T08:15:58Z</time>
      </trkpt>
      <trkpt lat="43.41314" lon="-0.53828">
        <ele>219.32</ele>
        <time>2017-01-07T08:16:16Z</time>
      </trkpt>
      <trkpt lat="43.41336" lon="-0.53828">
        <ele>222.68</ele>
        <time>2017-01-07T08:16:30Z</time>
      </trkpt>
      <trkpt lat="43.41356" lon="-0.53811">
        <ele>227.01</ele>
        <time>2017-01-07T08:16:45Z</time>
      </trkpt>
      <trkpt lat="43.41362" lon="-0.53798">
        <ele>229.89</ele>
        <time>2017-01-07T08:16:52Z</time>
      </trkpt>
      <trkpt lat="43.41372" lon="-0.53792">
        <ele>230.85</ele>
        <time>2017-01-07T08:17:00Z</time>
      </trkpt>
      <trkpt lat="43.41373" lon="-0.53792">
        <ele>230.85</ele>
        <time>2017-01-07T08:17:01Z</time>
      </trkpt>
      <trkpt lat="43.41374" lon="-0.53793">
        <ele>230.37</ele>
        <time>2017-01-07T08:17:02Z</time>
      </trkpt>
      <trkpt lat="43.41375" lon="-0.53794">
        <ele>230.37</ele>
        <time>2017-01-07T08:17:03Z</time>
      </trkpt>
      <trkpt lat="43.41377" lon="-0.53795">
        <ele>230.37</ele>
        <time>2017-01-07T08:17:04Z</time>
      </trkpt>
      <trkpt lat="43.41401" lon="-0.53807">
        <ele>228.93</ele>
        <time>2017-01-07T08:17:20Z</time>
      </trkpt>
      <trkpt lat="43.41435" lon="-0.53836">
        <ele>230.37</ele>
        <time>2017-01-07T08:17:38Z</time>
      </trkpt>
      <trkpt lat="43.41438" lon="-0.53852">
        <ele>227.97</ele>
        <time>2017-01-07T08:17:50Z</time>
      </trkpt>
      <trkpt lat="43.41438" lon="-0.53851">
        <ele>228.93</ele>
        <time>2017-01-07T08:18:27Z</time>
      </trkpt>
      <trkpt lat="43.41439" lon="-0.53851">
        <ele>229.89</ele>
        <time>2017-01-07T08:18:53Z</time>
      </trkpt>
      <trkpt lat="43.41437" lon="-0.53852">
        <ele>227.97</ele>
        <time>2017-01-07T08:19:09Z</time>
      </trkpt>
      <trkpt lat="43.41437" lon="-0.53846">
        <ele>224.12</ele>
        <time>2017-01-07T08:19:54Z</time>
      </trkpt>
      <trkpt lat="43.41436" lon="-0.53849">
        <ele>229.41</ele>
        <time>2017-01-07T08:20:39Z</time>
      </trkpt>
      <trkpt lat="43.4144" lon="-0.53851">
        <ele>230.85</ele>
        <time>2017-01-07T08:20:53Z</time>
      </trkpt>
      <trkpt lat="43.4144" lon="-0.53852">
        <ele>231.33</ele>
        <time>2017-01-07T08:20:54Z</time>
      </trkpt>
      <trkpt lat="43.41441" lon="-0.53892">
        <ele>233.74</ele>
        <time>2017-01-07T08:21:09Z</time>
      </trkpt>
      <trkpt lat="43.41436" lon="-0.53942">
        <ele>235.66</ele>
        <time>2017-01-07T08:21:26Z</time>
      </trkpt>
      <trkpt lat="43.41437" lon="-0.53991">
        <ele>238.54</ele>
        <time>2017-01-07T08:21:41Z</time>
      </trkpt>
      <trkpt lat="43.41444" lon="-0.54038">
        <ele>240.95</ele>
        <time>2017-01-07T08:21:56Z</time>
      </trkpt>
      <trkpt lat="43.41455" lon="-0.5408">
        <ele>243.83</ele>
        <time>2017-01-07T08:22:11Z</time>
      </trkpt>
      <trkpt lat="43.41466" lon="-0.5413">
        <ele>246.72</ele>
        <time>2017-01-07T08:22:26Z</time>
      </trkpt>
      <trkpt lat="43.41472" lon="-0.54178">
        <ele>247.68</ele>
        <time>2017-01-07T08:22:37Z</time>
      </trkpt>
      <trkpt lat="43.41462" lon="-0.54236">
        <ele>246.23</ele>
        <time>2017-01-07T08:22:50Z</time>
      </trkpt>
      <trkpt lat="43.41436" lon="-0.54289">
        <ele>247.2</ele>
        <time>2017-01-07T08:23:04Z</time>
      </trkpt>
      <trkpt lat="43.41406" lon="-0.54346">
        <ele>248.64</ele>
        <time>2017-01-07T08:23:19Z</time>
      </trkpt>
      <trkpt lat="43.41398" lon="-0.5436">
        <ele>247.68</ele>
        <time>2017-01-07T08:23:24Z</time>
      </trkpt>
      <trkpt lat="43.41398" lon="-0.54362">
        <ele>247.68</ele>
        <time>2017-01-07T08:23:25Z</time>
      </trkpt>
      <trkpt lat="43.41397" lon="-0.54366">
        <ele>248.16</ele>
        <time>2017-01-07T08:23:26Z</time>
      </trkpt>
      <trkpt lat="43.41389" lon="-0.54428">
        <ele>250.08</ele>
        <time>2017-01-07T08:23:40Z</time>
      </trkpt>
      <trkpt lat="43.41379" lon="-0.54491">
        <ele>243.83</ele>
        <time>2017-01-07T08:23:52Z</time>
      </trkpt>
      <trkpt lat="43.4138" lon="-0.54496">
        <ele>243.35</ele>
        <time>2017-01-07T08:23:59Z</time>
      </trkpt>
      <trkpt lat="43.41385" lon="-0.54467">
        <ele>249.12</ele>
        <time>2017-01-07T08:24:16Z</time>
      </trkpt>
      <trkpt lat="43.4139" lon="-0.54429">
        <ele>252.96</ele>
        <time>2017-01-07T08:24:34Z</time>
      </trkpt>
      <trkpt lat="43.4139" lon="-0.54405">
        <ele>253.44</ele>
        <time>2017-01-07T08:24:45Z</time>
      </trkpt>
      <trkpt lat="43.41393" lon="-0.54384">
        <ele>253.93</ele>
        <time>2017-01-07T08:24:51Z</time>
      </trkpt>
      <trkpt lat="43.41388" lon="-0.5438">
        <ele>252.96</ele>
        <time>2017-01-07T08:24:54Z</time>
      </trkpt>
      <trkpt lat="43.41386" lon="-0.54381">
        <ele>252.48</ele>
        <time>2017-01-07T08:24:55Z</time>
      </trkpt>
      <trkpt lat="43.41384" lon="-0.54384">
        <ele>252.48</ele>
        <time>2017-01-07T08:24:56Z</time>
      </trkpt>
      <trkpt lat="43.41383" lon="-0.54387">
        <ele>252.48</ele>
        <time>2017-01-07T08:24:57Z</time>
      </trkpt>
      <trkpt lat="43.41359" lon="-0.54427">
        <ele>251.04</ele>
        <time>2017-01-07T08:25:09Z</time>
      </trkpt>
      <trkpt lat="43.41327" lon="-0.54484">
        <ele>249.12</ele>
        <time>2017-01-07T08:25:24Z</time>
      </trkpt>
      <trkpt lat="43.4131" lon="-0.54541">
        <ele>243.83</ele>
        <time>2017-01-07T08:25:34Z</time>
      </trkpt>
      <trkpt lat="43.413" lon="-0.54601">
        <ele>237.58</ele>
        <time>2017-01-07T08:25:42Z</time>
      </trkpt>
      <trkpt lat="43.413" lon="-0.54606">
        <ele>237.1</ele>
        <time>2017-01-07T08:25:43Z</time>
      </trkpt>
      <trkpt lat="43.41312" lon="-0.54643">
        <ele>232.3</ele>
        <time>2017-01-07T08:25:52Z</time>
      </trkpt>
      <trkpt lat="43.41315" lon="-0.54644">
        <ele>231.81</ele>
        <time>2017-01-07T08:25:53Z</time>
      </trkpt>
      <trkpt lat="43.41319" lon="-0.54644">
        <ele>231.81</ele>
        <time>2017-01-07T08:25:54Z</time>
      </trkpt>
      <trkpt lat="43.41368" lon="-0.54644">
        <ele>230.37</ele>
        <time>2017-01-07T08:26:08Z</time>
      </trkpt>
      <trkpt lat="43.41402" lon="-0.54705">
        <ele>229.41</ele>
        <time>2017-01-07T08:26:20Z</time>
      </trkpt>
      <trkpt lat="43.41445" lon="-0.54805">
        <ele>227.49</ele>
        <time>2017-01-07T08:26:34Z</time>
      </trkpt>
      <trkpt lat="43.41449" lon="-0.54811">
        <ele>227.49</ele>
        <time>2017-01-07T08:26:35Z</time>
      </trkpt>
      <trkpt lat="43.41469" lon="-0.54837">
        <ele>228.93</ele>
        <time>2017-01-07T08:26:40Z</time>
      </trkpt>
      <trkpt lat="43.41473" lon="-0.54841">
        <ele>228.93</ele>
        <time>2017-01-07T08:26:41Z</time>
      </trkpt>
      <trkpt lat="43.41514" lon="-0.54876">
        <ele>230.37</ele>
        <time>2017-01-07T08:26:51Z</time>
      </trkpt>
      <trkpt lat="43.41569" lon="-0.54969">
        <ele>226.05</ele>
        <time>2017-01-07T08:27:05Z</time>
      </trkpt>
      <trkpt lat="43.4158" lon="-0.54981">
        <ele>225.09</ele>
        <time>2017-01-07T08:27:07Z</time>
      </trkpt>
      <trkpt lat="43.41586" lon="-0.54987">
        <ele>225.09</ele>
        <time>2017-01-07T08:27:08Z</time>
      </trkpt>
      <trkpt lat="43.41592" lon="-0.54991">
        <ele>224.61</ele>
        <time>2017-01-07T08:27:09Z</time>
      </trkpt>
      <trkpt lat="43.41598" lon="-0.54994">
        <ele>224.12</ele>
        <time>2017-01-07T08:27:10Z</time>
      </trkpt>
      <trkpt lat="43.41605" lon="-0.54996">
        <ele>223.64</ele>
        <time>2017-01-07T08:27:11Z</time>
      </trkpt>
      <trkpt lat="43.41614" lon="-0.54995">
        <ele>223.16</ele>
        <time>2017-01-07T08:27:12Z</time>
      </trkpt>
      <trkpt lat="43.41621" lon="-0.54994">
        <ele>222.68</ele>
        <time>2017-01-07T08:27:13Z</time>
      </trkpt>
      <trkpt lat="43.41629" lon="-0.54991">
        <ele>222.2</ele>
        <time>2017-01-07T08:27:14Z</time>
      </trkpt>
      <trkpt lat="43.41723" lon="-0.54995">
        <ele>215.95</ele>
        <time>2017-01-07T08:27:24Z</time>
      </trkpt>
      <trkpt lat="43.41803" lon="-0.55022">
        <ele>212.11</ele>
        <time>2017-01-07T08:27:34Z</time>
      </trkpt>
      <trkpt lat="43.41817" lon="-0.55032">
        <ele>211.15</ele>
        <time>2017-01-07T08:27:36Z</time>
      </trkpt>
      <trkpt lat="43.41823" lon="-0.55037">
        <ele>210.67</ele>
        <time>2017-01-07T08:27:37Z</time>
      </trkpt>
      <trkpt lat="43.41827" lon="-0.55045">
        <ele>210.19</ele>
        <time>2017-01-07T08:27:38Z</time>
      </trkpt>
      <trkpt lat="43.4183" lon="-0.55053">
        <ele>210.19</ele>
        <time>2017-01-07T08:27:39Z</time>
      </trkpt>
      <trkpt lat="43.41832" lon="-0.55061">
        <ele>210.67</ele>
        <time>2017-01-07T08:27:40Z</time>
      </trkpt>
      <trkpt lat="43.41835" lon="-0.55069">
        <ele>211.15</ele>
        <time>2017-01-07T08:27:41Z</time>
      </trkpt>
      <trkpt lat="43.41838" lon="-0.55075">
        <ele>211.15</ele>
        <time>2017-01-07T08:27:42Z</time>
      </trkpt>
      <trkpt lat="43.41841" lon="-0.55079">
        <ele>211.63</ele>
        <time>2017-01-07T08:27:43Z</time>
      </trkpt>
      <trkpt lat="43.41846" lon="-0.55083">
        <ele>212.11</ele>
        <time>2017-01-07T08:27:44Z</time>
      </trkpt>
      <trkpt lat="43.4185" lon="-0.55086">
        <ele>212.59</ele>
        <time>2017-01-07T08:27:45Z</time>
      </trkpt>
      <trkpt lat="43.41858" lon="-0.5509">
        <ele>213.07</ele>
        <time>2017-01-07T08:27:47Z</time>
      </trkpt>
      <trkpt lat="43.41888" lon="-0.55104">
        <ele>216.43</ele>
        <time>2017-01-07T08:27:58Z</time>
      </trkpt>
      <trkpt lat="43.4192" lon="-0.55108">
        <ele>220.28</ele>
        <time>2017-01-07T08:28:13Z</time>
      </trkpt>
      <trkpt lat="43.41951" lon="-0.55116">
        <ele>222.2</ele>
        <time>2017-01-07T08:28:28Z</time>
      </trkpt>
      <trkpt lat="43.41981" lon="-0.55151">
        <ele>223.16</ele>
        <time>2017-01-07T08:28:47Z</time>
      </trkpt>
      <trkpt lat="43.42013" lon="-0.55197">
        <ele>225.09</ele>
        <time>2017-01-07T08:29:04Z</time>
      </trkpt>
      <trkpt lat="43.4203" lon="-0.55245">
        <ele>226.53</ele>
        <time>2017-01-07T08:29:18Z</time>
      </trkpt>
      <trkpt lat="43.4205" lon="-0.55314">
        <ele>227.01</ele>
        <time>2017-01-07T08:29:35Z</time>
      </trkpt>
      <trkpt lat="43.42077" lon="-0.55389">
        <ele>229.89</ele>
        <time>2017-01-07T08:29:55Z</time>
      </trkpt>
      <trkpt lat="43.42099" lon="-0.55448">
        <ele>231.33</ele>
        <time>2017-01-07T08:30:10Z</time>
      </trkpt>
      <trkpt lat="43.42118" lon="-0.55519">
        <ele>232.3</ele>
        <time>2017-01-07T08:30:27Z</time>
      </trkpt>
      <trkpt lat="43.42142" lon="-0.55606">
        <ele>232.3</ele>
        <time>2017-01-07T08:30:46Z</time>
      </trkpt>
      <trkpt lat="43.42145" lon="-0.55617">
        <ele>232.3</ele>
        <time>2017-01-07T08:30:48Z</time>
      </trkpt>
      <trkpt lat="43.42151" lon="-0.55651">
        <ele>231.81</ele>
        <time>2017-01-07T08:30:54Z</time>
      </trkpt>
      <trkpt lat="43.42152" lon="-0.55656">
        <ele>231.81</ele>
        <time>2017-01-07T08:30:55Z</time>
      </trkpt>
      <trkpt lat="43.42173" lon="-0.55746">
        <ele>231.81</ele>
        <time>2017-01-07T08:31:12Z</time>
      </trkpt>
      <trkpt lat="43.42196" lon="-0.55803">
        <ele>232.3</ele>
        <time>2017-01-07T08:31:24Z</time>
      </trkpt>
      <trkpt lat="43.42222" lon="-0.55843">
        <ele>232.78</ele>
        <time>2017-01-07T08:31:34Z</time>
      </trkpt>
      <trkpt lat="43.42267" lon="-0.55921">
        <ele>232.3</ele>
        <time>2017-01-07T08:31:47Z</time>
      </trkpt>
      <trkpt lat="43.42329" lon="-0.56029">
        <ele>226.53</ele>
        <time>2017-01-07T08:31:59Z</time>
      </trkpt>
      <trkpt lat="43.4238" lon="-0.56117">
        <ele>221.72</ele>
        <time>2017-01-07T08:32:08Z</time>
      </trkpt>
      <trkpt lat="43.42383" lon="-0.56126">
        <ele>221.72</ele>
        <time>2017-01-07T08:32:09Z</time>
      </trkpt>
      <trkpt lat="43.42392" lon="-0.56157">
        <ele>220.76</ele>
        <time>2017-01-07T08:32:13Z</time>
      </trkpt>
      <trkpt lat="43.42394" lon="-0.56163">
        <ele>220.28</ele>
        <time>2017-01-07T08:32:14Z</time>
      </trkpt>
      <trkpt lat="43.42416" lon="-0.56244">
        <ele>217.88</ele>
        <time>2017-01-07T08:32:28Z</time>
      </trkpt>
      <trkpt lat="43.42443" lon="-0.56343">
        <ele>217.88</ele>
        <time>2017-01-07T08:32:45Z</time>
      </trkpt>
      <trkpt lat="43.42468" lon="-0.56406">
        <ele>222.68</ele>
        <time>2017-01-07T08:33:00Z</time>
      </trkpt>
      <trkpt lat="43.425" lon="-0.56455">
        <ele>219.8</ele>
        <time>2017-01-07T08:33:12Z</time>
      </trkpt>
      <trkpt lat="43.42525" lon="-0.56474">
        <ele>216.91</ele>
        <time>2017-01-07T08:33:21Z</time>
      </trkpt>
      <trkpt lat="43.42544" lon="-0.56502">
        <ele>214.99</ele>
        <time>2017-01-07T08:33:28Z</time>
      </trkpt>
      <trkpt lat="43.42547" lon="-0.56506">
        <ele>214.51</ele>
        <time>2017-01-07T08:33:29Z</time>
      </trkpt>
      <trkpt lat="43.42555" lon="-0.56517">
        <ele>213.55</ele>
        <time>2017-01-07T08:33:31Z</time>
      </trkpt>
      <trkpt lat="43.42579" lon="-0.56568">
        <ele>211.15</ele>
        <time>2017-01-07T08:33:38Z</time>
      </trkpt>
      <trkpt lat="43.42598" lon="-0.56622">
        <ele>207.78</ele>
        <time>2017-01-07T08:33:45Z</time>
      </trkpt>
      <trkpt lat="43.42605" lon="-0.56639">
        <ele>206.34</ele>
        <time>2017-01-07T08:33:47Z</time>
      </trkpt>
      <trkpt lat="43.42609" lon="-0.56647">
        <ele>205.86</ele>
        <time>2017-01-07T08:33:48Z</time>
      </trkpt>
      <trkpt lat="43.42627" lon="-0.56679">
        <ele>203.46</ele>
        <time>2017-01-07T08:33:52Z</time>
      </trkpt>
      <trkpt lat="43.42663" lon="-0.56782">
        <ele>199.13</ele>
        <time>2017-01-07T08:34:04Z</time>
      </trkpt>
      <trkpt lat="43.42673" lon="-0.5681">
        <ele>200.57</ele>
        <time>2017-01-07T08:34:14Z</time>
      </trkpt>
      <trkpt lat="43.42684" lon="-0.56841">
        <ele>205.38</ele>
        <time>2017-01-07T08:34:28Z</time>
      </trkpt>
      <trkpt lat="43.42681" lon="-0.56887">
        <ele>207.78</ele>
        <time>2017-01-07T08:34:44Z</time>
      </trkpt>
      <trkpt lat="43.42692" lon="-0.56925">
        <ele>209.7</ele>
        <time>2017-01-07T08:34:56Z</time>
      </trkpt>
      <trkpt lat="43.42709" lon="-0.56973">
        <ele>209.22</ele>
        <time>2017-01-07T08:35:12Z</time>
      </trkpt>
      <trkpt lat="43.42734" lon="-0.57011">
        <ele>208.26</ele>
        <time>2017-01-07T08:35:26Z</time>
      </trkpt>
      <trkpt lat="43.42766" lon="-0.5705">
        <ele>209.7</ele>
        <time>2017-01-07T08:35:40Z</time>
      </trkpt>
      <trkpt lat="43.42786" lon="-0.57086">
        <ele>210.19</ele>
        <time>2017-01-07T08:35:48Z</time>
      </trkpt>
      <trkpt lat="43.42789" lon="-0.5709">
        <ele>210.19</ele>
        <time>2017-01-07T08:35:49Z</time>
      </trkpt>
      <trkpt lat="43.42792" lon="-0.57094">
        <ele>210.67</ele>
        <time>2017-01-07T08:35:50Z</time>
      </trkpt>
      <trkpt lat="43.4281" lon="-0.57125">
        <ele>209.7</ele>
        <time>2017-01-07T08:35:57Z</time>
      </trkpt>
      <trkpt lat="43.42828" lon="-0.57177">
        <ele>210.67</ele>
        <time>2017-01-07T08:36:05Z</time>
      </trkpt>
      <trkpt lat="43.42832" lon="-0.57185">
        <ele>210.67</ele>
        <time>2017-01-07T08:36:06Z</time>
      </trkpt>
      <trkpt lat="43.42836" lon="-0.57193">
        <ele>210.67</ele>
        <time>2017-01-07T08:36:07Z</time>
      </trkpt>
      <trkpt lat="43.42841" lon="-0.572">
        <ele>210.67</ele>
        <time>2017-01-07T08:36:08Z</time>
      </trkpt>
      <trkpt lat="43.42847" lon="-0.57208">
        <ele>210.19</ele>
        <time>2017-01-07T08:36:09Z</time>
      </trkpt>
      <trkpt lat="43.42852" lon="-0.57214">
        <ele>210.19</ele>
        <time>2017-01-07T08:36:10Z</time>
      </trkpt>
      <trkpt lat="43.42858" lon="-0.57219">
        <ele>209.7</ele>
        <time>2017-01-07T08:36:11Z</time>
      </trkpt>
      <trkpt lat="43.42862" lon="-0.57225">
        <ele>209.7</ele>
        <time>2017-01-07T08:36:12Z</time>
      </trkpt>
      <trkpt lat="43.42884" lon="-0.57267">
        <ele>208.74</ele>
        <time>2017-01-07T08:36:22Z</time>
      </trkpt>
      <trkpt lat="43.42902" lon="-0.57325">
        <ele>207.3</ele>
        <time>2017-01-07T08:36:36Z</time>
      </trkpt>
      <trkpt lat="43.42902" lon="-0.57331">
        <ele>206.82</ele>
        <time>2017-01-07T08:36:37Z</time>
      </trkpt>
      <trkpt lat="43.42903" lon="-0.57337">
        <ele>206.34</ele>
        <time>2017-01-07T08:36:38Z</time>
      </trkpt>
      <trkpt lat="43.42905" lon="-0.57361">
        <ele>204.42</ele>
        <time>2017-01-07T08:36:42Z</time>
      </trkpt>
      <trkpt lat="43.42907" lon="-0.57368">
        <ele>203.94</ele>
        <time>2017-01-07T08:36:43Z</time>
      </trkpt>
      <trkpt lat="43.42909" lon="-0.57376">
        <ele>203.46</ele>
        <time>2017-01-07T08:36:44Z</time>
      </trkpt>
      <trkpt lat="43.42916" lon="-0.57395">
        <ele>202.01</ele>
        <time>2017-01-07T08:36:46Z</time>
      </trkpt>
      <trkpt lat="43.42951" lon="-0.57488">
        <ele>198.65</ele>
        <time>2017-01-07T08:36:57Z</time>
      </trkpt>
      <trkpt lat="43.42975" lon="-0.57552">
        <ele>198.17</ele>
        <time>2017-01-07T08:37:06Z</time>
      </trkpt>
      <trkpt lat="43.42978" lon="-0.57558">
        <ele>197.69</ele>
        <time>2017-01-07T08:37:07Z</time>
      </trkpt>
      <trkpt lat="43.42982" lon="-0.57564">
        <ele>197.21</ele>
        <time>2017-01-07T08:37:08Z</time>
      </trkpt>
      <trkpt lat="43.42986" lon="-0.57569">
        <ele>196.25</ele>
        <time>2017-01-07T08:37:09Z</time>
      </trkpt>
      <trkpt lat="43.4299" lon="-0.57573">
        <ele>195.28</ele>
        <time>2017-01-07T08:37:10Z</time>
      </trkpt>
      <trkpt lat="43.42994" lon="-0.57578">
        <ele>194.32</ele>
        <time>2017-01-07T08:37:11Z</time>
      </trkpt>
      <trkpt lat="43.43007" lon="-0.57594">
        <ele>190.96</ele>
        <time>2017-01-07T08:37:14Z</time>
      </trkpt>
      <trkpt lat="43.4301" lon="-0.57601">
        <ele>190</ele>
        <time>2017-01-07T08:37:15Z</time>
      </trkpt>
      <trkpt lat="43.43012" lon="-0.57608">
        <ele>189.04</ele>
        <time>2017-01-07T08:37:16Z</time>
      </trkpt>
      <trkpt lat="43.43014" lon="-0.57614">
        <ele>188.56</ele>
        <time>2017-01-07T08:37:17Z</time>
      </trkpt>
      <trkpt lat="43.43015" lon="-0.5762">
        <ele>187.59</ele>
        <time>2017-01-07T08:37:18Z</time>
      </trkpt>
      <trkpt lat="43.43018" lon="-0.57637">
        <ele>185.19</ele>
        <time>2017-01-07T08:37:21Z</time>
      </trkpt>
      <trkpt lat="43.43019" lon="-0.57642">
        <ele>184.23</ele>
        <time>2017-01-07T08:37:22Z</time>
      </trkpt>
      <trkpt lat="43.43021" lon="-0.57649">
        <ele>182.79</ele>
        <time>2017-01-07T08:37:23Z</time>
      </trkpt>
      <trkpt lat="43.43025" lon="-0.57655">
        <ele>181.35</ele>
        <time>2017-01-07T08:37:24Z</time>
      </trkpt>
      <trkpt lat="43.43029" lon="-0.57662">
        <ele>179.9</ele>
        <time>2017-01-07T08:37:25Z</time>
      </trkpt>
      <trkpt lat="43.43035" lon="-0.57668">
        <ele>178.46</ele>
        <time>2017-01-07T08:37:26Z</time>
      </trkpt>
      <trkpt lat="43.43041" lon="-0.57674">
        <ele>177.5</ele>
        <time>2017-01-07T08:37:27Z</time>
      </trkpt>
      <trkpt lat="43.43048" lon="-0.5768">
        <ele>176.06</ele>
        <time>2017-01-07T08:37:28Z</time>
      </trkpt>
      <trkpt lat="43.43055" lon="-0.57684">
        <ele>175.1</ele>
        <time>2017-01-07T08:37:29Z</time>
      </trkpt>
      <trkpt lat="43.43076" lon="-0.57699">
        <ele>173.66</ele>
        <time>2017-01-07T08:37:32Z</time>
      </trkpt>
      <trkpt lat="43.43081" lon="-0.57705">
        <ele>173.17</ele>
        <time>2017-01-07T08:37:33Z</time>
      </trkpt>
      <trkpt lat="43.4309" lon="-0.57718">
        <ele>172.21</ele>
        <time>2017-01-07T08:37:35Z</time>
      </trkpt>
      <trkpt lat="43.43098" lon="-0.57735">
        <ele>170.77</ele>
        <time>2017-01-07T08:37:37Z</time>
      </trkpt>
      <trkpt lat="43.43102" lon="-0.57744">
        <ele>169.81</ele>
        <time>2017-01-07T08:37:38Z</time>
      </trkpt>
      <trkpt lat="43.43104" lon="-0.57754">
        <ele>169.33</ele>
        <time>2017-01-07T08:37:39Z</time>
      </trkpt>
      <trkpt lat="43.43117" lon="-0.57829">
        <ele>166.45</ele>
        <time>2017-01-07T08:37:47Z</time>
      </trkpt>
      <trkpt lat="43.43117" lon="-0.57838">
        <ele>165.96</ele>
        <time>2017-01-07T08:37:48Z</time>
      </trkpt>
      <trkpt lat="43.43117" lon="-0.57857">
        <ele>165</ele>
        <time>2017-01-07T08:37:50Z</time>
      </trkpt>
      <trkpt lat="43.43117" lon="-0.57866">
        <ele>165</ele>
        <time>2017-01-07T08:37:51Z</time>
      </trkpt>
      <trkpt lat="43.43118" lon="-0.57874">
        <ele>164.52</ele>
        <time>2017-01-07T08:37:52Z</time>
      </trkpt>
      <trkpt lat="43.4312" lon="-0.57882">
        <ele>164.52</ele>
        <time>2017-01-07T08:37:53Z</time>
      </trkpt>
      <trkpt lat="43.43121" lon="-0.57888">
        <ele>165</ele>
        <time>2017-01-07T08:37:54Z</time>
      </trkpt>
      <trkpt lat="43.43132" lon="-0.57928">
        <ele>166.93</ele>
        <time>2017-01-07T08:38:05Z</time>
      </trkpt>
      <trkpt lat="43.4315" lon="-0.57985">
        <ele>166.93</ele>
        <time>2017-01-07T08:38:22Z</time>
      </trkpt>
      <trkpt lat="43.43144" lon="-0.58032">
        <ele>166.45</ele>
        <time>2017-01-07T08:38:31Z</time>
      </trkpt>
      <trkpt lat="43.43133" lon="-0.58113">
        <ele>167.89</ele>
        <time>2017-01-07T08:38:47Z</time>
      </trkpt>
      <trkpt lat="43.43123" lon="-0.58158">
        <ele>164.04</ele>
        <time>2017-01-07T08:38:56Z</time>
      </trkpt>
      <trkpt lat="43.43122" lon="-0.58164">
        <ele>163.08</ele>
        <time>2017-01-07T08:38:57Z</time>
      </trkpt>
      <trkpt lat="43.4312" lon="-0.5817">
        <ele>162.6</ele>
        <time>2017-01-07T08:38:58Z</time>
      </trkpt>
      <trkpt lat="43.43116" lon="-0.58176">
        <ele>162.12</ele>
        <time>2017-01-07T08:38:59Z</time>
      </trkpt>
      <trkpt lat="43.43112" lon="-0.58181">
        <ele>161.64</ele>
        <time>2017-01-07T08:39:00Z</time>
      </trkpt>
      <trkpt lat="43.43107" lon="-0.58187">
        <ele>161.16</ele>
        <time>2017-01-07T08:39:01Z</time>
      </trkpt>
      <trkpt lat="43.43102" lon="-0.58193">
        <ele>160.68</ele>
        <time>2017-01-07T08:39:02Z</time>
      </trkpt>
      <trkpt lat="43.43095" lon="-0.58205">
        <ele>160.2</ele>
        <time>2017-01-07T08:39:04Z</time>
      </trkpt>
      <trkpt lat="43.43084" lon="-0.58232">
        <ele>157.31</ele>
        <time>2017-01-07T08:39:12Z</time>
      </trkpt>
      <trkpt lat="43.43085" lon="-0.5823">
        <ele>157.79</ele>
        <time>2017-01-07T08:39:24Z</time>
      </trkpt>
      <trkpt lat="43.4309" lon="-0.58233">
        <ele>158.27</ele>
        <time>2017-01-07T08:39:44Z</time>
      </trkpt>
      <trkpt lat="43.4311" lon="-0.5824">
        <ele>157.31</ele>
        <time>2017-01-07T08:39:52Z</time>
      </trkpt>
      <trkpt lat="43.43113" lon="-0.58239">
        <ele>156.83</ele>
        <time>2017-01-07T08:39:53Z</time>
      </trkpt>
      <trkpt lat="43.43116" lon="-0.58236">
        <ele>156.35</ele>
        <time>2017-01-07T08:39:54Z</time>
      </trkpt>
      <trkpt lat="43.4312" lon="-0.58233">
        <ele>155.87</ele>
        <time>2017-01-07T08:39:55Z</time>
      </trkpt>
      <trkpt lat="43.43124" lon="-0.58229">
        <ele>155.39</ele>
        <time>2017-01-07T08:39:56Z</time>
      </trkpt>
      <trkpt lat="43.43144" lon="-0.58207">
        <ele>153.47</ele>
        <time>2017-01-07T08:40:00Z</time>
      </trkpt>
      <trkpt lat="43.43149" lon="-0.58203">
        <ele>152.99</ele>
        <time>2017-01-07T08:40:01Z</time>
      </trkpt>
      <trkpt lat="43.43154" lon="-0.58201">
        <ele>152.51</ele>
        <time>2017-01-07T08:40:02Z</time>
      </trkpt>
      <trkpt lat="43.43159" lon="-0.58201">
        <ele>152.03</ele>
        <time>2017-01-07T08:40:03Z</time>
      </trkpt>
      <trkpt lat="43.43163" lon="-0.58201">
        <ele>152.03</ele>
        <time>2017-01-07T08:40:04Z</time>
      </trkpt>
      <trkpt lat="43.43167" lon="-0.58203">
        <ele>151.54</ele>
        <time>2017-01-07T08:40:05Z</time>
      </trkpt>
      <trkpt lat="43.43194" lon="-0.58216">
        <ele>149.14</ele>
        <time>2017-01-07T08:40:10Z</time>
      </trkpt>
      <trkpt lat="43.432" lon="-0.58217">
        <ele>149.14</ele>
        <time>2017-01-07T08:40:11Z</time>
      </trkpt>
      <trkpt lat="43.43206" lon="-0.58217">
        <ele>148.66</ele>
        <time>2017-01-07T08:40:12Z</time>
      </trkpt>
      <trkpt lat="43.4321" lon="-0.58214">
        <ele>148.18</ele>
        <time>2017-01-07T08:40:13Z</time>
      </trkpt>
      <trkpt lat="43.43214" lon="-0.5821">
        <ele>147.7</ele>
        <time>2017-01-07T08:40:14Z</time>
      </trkpt>
      <trkpt lat="43.43217" lon="-0.58205">
        <ele>147.22</ele>
        <time>2017-01-07T08:40:15Z</time>
      </trkpt>
      <trkpt lat="43.43219" lon="-0.582">
        <ele>146.74</ele>
        <time>2017-01-07T08:40:16Z</time>
      </trkpt>
      <trkpt lat="43.43221" lon="-0.58194">
        <ele>146.26</ele>
        <time>2017-01-07T08:40:17Z</time>
      </trkpt>
      <trkpt lat="43.43222" lon="-0.58189">
        <ele>145.78</ele>
        <time>2017-01-07T08:40:18Z</time>
      </trkpt>
      <trkpt lat="43.43224" lon="-0.58177">
        <ele>144.82</ele>
        <time>2017-01-07T08:40:20Z</time>
      </trkpt>
      <trkpt lat="43.43228" lon="-0.58172">
        <ele>144.34</ele>
        <time>2017-01-07T08:40:21Z</time>
      </trkpt>
      <trkpt lat="43.43232" lon="-0.58168">
        <ele>144.34</ele>
        <time>2017-01-07T08:40:22Z</time>
      </trkpt>
      <trkpt lat="43.43238" lon="-0.58166">
        <ele>143.85</ele>
        <time>2017-01-07T08:40:23Z</time>
      </trkpt>
      <trkpt lat="43.43243" lon="-0.58166">
        <ele>143.37</ele>
        <time>2017-01-07T08:40:24Z</time>
      </trkpt>
      <trkpt lat="43.43249" lon="-0.58166">
        <ele>142.89</ele>
        <time>2017-01-07T08:40:25Z</time>
      </trkpt>
      <trkpt lat="43.43255" lon="-0.58168">
        <ele>141.93</ele>
        <time>2017-01-07T08:40:26Z</time>
      </trkpt>
      <trkpt lat="43.4326" lon="-0.58169">
        <ele>141.45</ele>
        <time>2017-01-07T08:40:27Z</time>
      </trkpt>
      <trkpt lat="43.43264" lon="-0.58172">
        <ele>140.97</ele>
        <time>2017-01-07T08:40:28Z</time>
      </trkpt>
      <trkpt lat="43.43268" lon="-0.58176">
        <ele>140.01</ele>
        <time>2017-01-07T08:40:29Z</time>
      </trkpt>
      <trkpt lat="43.43273" lon="-0.58181">
        <ele>139.53</ele>
        <time>2017-01-07T08:40:30Z</time>
      </trkpt>
      <trkpt lat="43.43276" lon="-0.58185">
        <ele>138.57</ele>
        <time>2017-01-07T08:40:31Z</time>
      </trkpt>
      <trkpt lat="43.43279" lon="-0.58189">
        <ele>137.61</ele>
        <time>2017-01-07T08:40:32Z</time>
      </trkpt>
      <trkpt lat="43.43288" lon="-0.58208">
        <ele>135.2</ele>
        <time>2017-01-07T08:40:35Z</time>
      </trkpt>
      <trkpt lat="43.43294" lon="-0.58224">
        <ele>133.76</ele>
        <time>2017-01-07T08:40:37Z</time>
      </trkpt>
      <trkpt lat="43.43311" lon="-0.58266">
        <ele>130.88</ele>
        <time>2017-01-07T08:40:42Z</time>
      </trkpt>
      <trkpt lat="43.43319" lon="-0.58277">
        <ele>129.92</ele>
        <time>2017-01-07T08:40:44Z</time>
      </trkpt>
      <trkpt lat="43.43328" lon="-0.58287">
        <ele>128.95</ele>
        <time>2017-01-07T08:40:46Z</time>
      </trkpt>
      <trkpt lat="43.43333" lon="-0.58292">
        <ele>128.95</ele>
        <time>2017-01-07T08:40:47Z</time>
      </trkpt>
      <trkpt lat="43.43342" lon="-0.58303">
        <ele>128.47</ele>
        <time>2017-01-07T08:40:49Z</time>
      </trkpt>
      <trkpt lat="43.43348" lon="-0.58308">
        <ele>128.47</ele>
        <time>2017-01-07T08:40:50Z</time>
      </trkpt>
      <trkpt lat="43.43353" lon="-0.58312">
        <ele>127.99</ele>
        <time>2017-01-07T08:40:51Z</time>
      </trkpt>
      <trkpt lat="43.43359" lon="-0.58315">
        <ele>127.99</ele>
        <time>2017-01-07T08:40:52Z</time>
      </trkpt>
      <trkpt lat="43.43365" lon="-0.58317">
        <ele>127.51</ele>
        <time>2017-01-07T08:40:53Z</time>
      </trkpt>
      <trkpt lat="43.43371" lon="-0.58319">
        <ele>127.51</ele>
        <time>2017-01-07T08:40:54Z</time>
      </trkpt>
      <trkpt lat="43.43429" lon="-0.58342">
        <ele>126.55</ele>
        <time>2017-01-07T08:41:06Z</time>
      </trkpt>
      <trkpt lat="43.43455" lon="-0.58352">
        <ele>125.59</ele>
        <time>2017-01-07T08:41:17Z</time>
      </trkpt>
      <trkpt lat="43.43483" lon="-0.58363">
        <ele>126.55</ele>
        <time>2017-01-07T08:41:27Z</time>
      </trkpt>
      <trkpt lat="43.43555" lon="-0.58399">
        <ele>125.11</ele>
        <time>2017-01-07T08:41:45Z</time>
      </trkpt>
      <trkpt lat="43.43622" lon="-0.58431">
        <ele>125.59</ele>
        <time>2017-01-07T08:42:01Z</time>
      </trkpt>
      <trkpt lat="43.437" lon="-0.5847">
        <ele>127.51</ele>
        <time>2017-01-07T08:42:20Z</time>
      </trkpt>
      <trkpt lat="43.43746" lon="-0.58491">
        <ele>129.43</ele>
        <time>2017-01-07T08:42:31Z</time>
      </trkpt>
      <trkpt lat="43.43806" lon="-0.58516">
        <ele>130.88</ele>
        <time>2017-01-07T08:42:48Z</time>
      </trkpt>
      <trkpt lat="43.43808" lon="-0.58513">
        <ele>131.36</ele>
        <time>2017-01-07T08:42:49Z</time>
      </trkpt>
      <trkpt lat="43.43808" lon="-0.5851">
        <ele>131.36</ele>
        <time>2017-01-07T08:42:50Z</time>
      </trkpt>
      <trkpt lat="43.43809" lon="-0.58506">
        <ele>131.36</ele>
        <time>2017-01-07T08:42:51Z</time>
      </trkpt>
      <trkpt lat="43.4381" lon="-0.58503">
        <ele>131.36</ele>
        <time>2017-01-07T08:42:52Z</time>
      </trkpt>
      <trkpt lat="43.43812" lon="-0.585">
        <ele>131.36</ele>
        <time>2017-01-07T08:42:53Z</time>
      </trkpt>
      <trkpt lat="43.43814" lon="-0.58497">
        <ele>131.36</ele>
        <time>2017-01-07T08:42:54Z</time>
      </trkpt>
      <trkpt lat="43.43862" lon="-0.58442">
        <ele>133.76</ele>
        <time>2017-01-07T08:43:12Z</time>
      </trkpt>
      <trkpt lat="43.43876" lon="-0.58419">
        <ele>133.28</ele>
        <time>2017-01-07T08:43:22Z</time>
      </trkpt>
      <trkpt lat="43.43875" lon="-0.58418">
        <ele>132.8</ele>
        <time>2017-01-07T08:43:51Z</time>
      </trkpt>
      <trkpt lat="43.43879" lon="-0.58421">
        <ele>130.88</ele>
        <time>2017-01-07T08:44:11Z</time>
      </trkpt>
      <trkpt lat="43.43881" lon="-0.58421">
        <ele>131.36</ele>
        <time>2017-01-07T08:44:12Z</time>
      </trkpt>
      <trkpt lat="43.43883" lon="-0.58421">
        <ele>131.36</ele>
        <time>2017-01-07T08:44:13Z</time>
      </trkpt>
      <trkpt lat="43.43886" lon="-0.5842">
        <ele>131.36</ele>
        <time>2017-01-07T08:44:14Z</time>
      </trkpt>
      <trkpt lat="43.43889" lon="-0.58418">
        <ele>131.84</ele>
        <time>2017-01-07T08:44:15Z</time>
      </trkpt>
      <trkpt lat="43.43892" lon="-0.58416">
        <ele>131.84</ele>
        <time>2017-01-07T08:44:16Z</time>
      </trkpt>
      <trkpt lat="43.43946" lon="-0.58375">
        <ele>134.24</ele>
        <time>2017-01-07T08:44:32Z</time>
      </trkpt>
      <trkpt lat="43.4397" lon="-0.58354">
        <ele>135.68</ele>
        <time>2017-01-07T08:44:40Z</time>
      </trkpt>
      <trkpt lat="43.43971" lon="-0.58349">
        <ele>135.68</ele>
        <time>2017-01-07T08:44:41Z</time>
      </trkpt>
      <trkpt lat="43.43971" lon="-0.58345">
        <ele>135.68</ele>
        <time>2017-01-07T08:44:42Z</time>
      </trkpt>
      <trkpt lat="43.4397" lon="-0.5834">
        <ele>135.68</ele>
        <time>2017-01-07T08:44:43Z</time>
      </trkpt>
      <trkpt lat="43.43969" lon="-0.58335">
        <ele>136.16</ele>
        <time>2017-01-07T08:44:44Z</time>
      </trkpt>
      <trkpt lat="43.43967" lon="-0.5833">
        <ele>135.68</ele>
        <time>2017-01-07T08:44:45Z</time>
      </trkpt>
      <trkpt lat="43.43963" lon="-0.58314">
        <ele>135.68</ele>
        <time>2017-01-07T08:44:48Z</time>
      </trkpt>
      <trkpt lat="43.43957" lon="-0.58299">
        <ele>135.2</ele>
        <time>2017-01-07T08:44:51Z</time>
      </trkpt>
      <trkpt lat="43.43914" lon="-0.58205">
        <ele>133.76</ele>
        <time>2017-01-07T08:45:09Z</time>
      </trkpt>
      <trkpt lat="43.43874" lon="-0.58117">
        <ele>133.76</ele>
        <time>2017-01-07T08:45:26Z</time>
      </trkpt>
      <trkpt lat="43.43846" lon="-0.58055">
        <ele>134.24</ele>
        <time>2017-01-07T08:45:38Z</time>
      </trkpt>
      <trkpt lat="43.43833" lon="-0.58025">
        <ele>134.72</ele>
        <time>2017-01-07T08:45:44Z</time>
      </trkpt>
      <trkpt lat="43.4383" lon="-0.5802">
        <ele>134.72</ele>
        <time>2017-01-07T08:45:45Z</time>
      </trkpt>
      <trkpt lat="43.4381" lon="-0.57975">
        <ele>135.2</ele>
        <time>2017-01-07T08:45:54Z</time>
      </trkpt>
      <trkpt lat="43.43791" lon="-0.57932">
        <ele>134.24</ele>
        <time>2017-01-07T08:46:02Z</time>
      </trkpt>
      <trkpt lat="43.43788" lon="-0.57921">
        <ele>134.24</ele>
        <time>2017-01-07T08:46:04Z</time>
      </trkpt>
      <trkpt lat="43.43786" lon="-0.57903">
        <ele>133.76</ele>
        <time>2017-01-07T08:46:07Z</time>
      </trkpt>
      <trkpt lat="43.43787" lon="-0.57897">
        <ele>133.76</ele>
        <time>2017-01-07T08:46:08Z</time>
      </trkpt>
      <trkpt lat="43.43787" lon="-0.57879">
        <ele>133.76</ele>
        <time>2017-01-07T08:46:11Z</time>
      </trkpt>
      <trkpt lat="43.43786" lon="-0.57862">
        <ele>133.76</ele>
        <time>2017-01-07T08:46:14Z</time>
      </trkpt>
      <trkpt lat="43.43784" lon="-0.57856">
        <ele>133.76</ele>
        <time>2017-01-07T08:46:15Z</time>
      </trkpt>
      <trkpt lat="43.43781" lon="-0.57845">
        <ele>134.24</ele>
        <time>2017-01-07T08:46:17Z</time>
      </trkpt>
      <trkpt lat="43.43773" lon="-0.57817">
        <ele>134.24</ele>
        <time>2017-01-07T08:46:22Z</time>
      </trkpt>
      <trkpt lat="43.43747" lon="-0.57763">
        <ele>134.72</ele>
        <time>2017-01-07T08:46:33Z</time>
      </trkpt>
      <trkpt lat="43.43724" lon="-0.57677">
        <ele>134.72</ele>
        <time>2017-01-07T08:46:48Z</time>
      </trkpt>
      <trkpt lat="43.43724" lon="-0.57671">
        <ele>134.72</ele>
        <time>2017-01-07T08:46:49Z</time>
      </trkpt>
      <trkpt lat="43.43725" lon="-0.57666">
        <ele>135.2</ele>
        <time>2017-01-07T08:46:50Z</time>
      </trkpt>
      <trkpt lat="43.43726" lon="-0.57661">
        <ele>135.2</ele>
        <time>2017-01-07T08:46:51Z</time>
      </trkpt>
      <trkpt lat="43.43727" lon="-0.57656">
        <ele>135.2</ele>
        <time>2017-01-07T08:46:52Z</time>
      </trkpt>
      <trkpt lat="43.43729" lon="-0.57652">
        <ele>135.2</ele>
        <time>2017-01-07T08:46:53Z</time>
      </trkpt>
      <trkpt lat="43.43731" lon="-0.57647">
        <ele>135.2</ele>
        <time>2017-01-07T08:46:54Z</time>
      </trkpt>
      <trkpt lat="43.43764" lon="-0.57559">
        <ele>137.13</ele>
        <time>2017-01-07T08:47:11Z</time>
      </trkpt>
      <trkpt lat="43.43795" lon="-0.5748">
        <ele>139.05</ele>
        <time>2017-01-07T08:47:29Z</time>
      </trkpt>
      <trkpt lat="43.43822" lon="-0.5743">
        <ele>141.93</ele>
        <time>2017-01-07T08:47:45Z</time>
      </trkpt>
      <trkpt lat="43.43844" lon="-0.57401">
        <ele>143.85</ele>
        <time>2017-01-07T08:48:00Z</time>
      </trkpt>
      <trkpt lat="43.43867" lon="-0.57372">
        <ele>147.7</ele>
        <time>2017-01-07T08:48:18Z</time>
      </trkpt>
      <trkpt lat="43.43872" lon="-0.57364">
        <ele>148.66</ele>
        <time>2017-01-07T08:48:23Z</time>
      </trkpt>
      <trkpt lat="43.43872" lon="-0.57361">
        <ele>148.66</ele>
        <time>2017-01-07T08:48:24Z</time>
      </trkpt>
      <trkpt lat="43.43871" lon="-0.57359">
        <ele>148.66</ele>
        <time>2017-01-07T08:48:25Z</time>
      </trkpt>
      <trkpt lat="43.43848" lon="-0.57306">
        <ele>145.78</ele>
        <time>2017-01-07T08:48:37Z</time>
      </trkpt>
      <trkpt lat="43.43818" lon="-0.57245">
        <ele>145.3</ele>
        <time>2017-01-07T08:48:51Z</time>
      </trkpt>
      <trkpt lat="43.43786" lon="-0.57201">
        <ele>144.34</ele>
        <time>2017-01-07T08:49:04Z</time>
      </trkpt>
      <trkpt lat="43.43755" lon="-0.57147">
        <ele>146.26</ele>
        <time>2017-01-07T08:49:19Z</time>
      </trkpt>
      <trkpt lat="43.43728" lon="-0.57083">
        <ele>146.74</ele>
        <time>2017-01-07T08:49:36Z</time>
      </trkpt>
      <trkpt lat="43.43711" lon="-0.57026">
        <ele>146.74</ele>
        <time>2017-01-07T08:49:50Z</time>
      </trkpt>
      <trkpt lat="43.43709" lon="-0.56973">
        <ele>147.7</ele>
        <time>2017-01-07T08:50:02Z</time>
      </trkpt>
      <trkpt lat="43.43707" lon="-0.56918">
        <ele>149.14</ele>
        <time>2017-01-07T08:50:14Z</time>
      </trkpt>
      <trkpt lat="43.43685" lon="-0.56849">
        <ele>147.22</ele>
        <time>2017-01-07T08:50:29Z</time>
      </trkpt>
      <trkpt lat="43.43672" lon="-0.56813">
        <ele>146.74</ele>
        <time>2017-01-07T08:50:38Z</time>
      </trkpt>
      <trkpt lat="43.43673" lon="-0.5681">
        <ele>146.74</ele>
        <time>2017-01-07T08:50:39Z</time>
      </trkpt>
      <trkpt lat="43.43675" lon="-0.56808">
        <ele>147.22</ele>
        <time>2017-01-07T08:50:40Z</time>
      </trkpt>
      <trkpt lat="43.43677" lon="-0.56807">
        <ele>147.22</ele>
        <time>2017-01-07T08:50:41Z</time>
      </trkpt>
      <trkpt lat="43.43679" lon="-0.56806">
        <ele>147.22</ele>
        <time>2017-01-07T08:50:42Z</time>
      </trkpt>
      <trkpt lat="43.43695" lon="-0.56813">
        <ele>152.03</ele>
        <time>2017-01-07T08:50:54Z</time>
      </trkpt>
      <trkpt lat="43.43717" lon="-0.56826">
        <ele>158.75</ele>
        <time>2017-01-07T08:51:09Z</time>
      </trkpt>
      <trkpt lat="43.43721" lon="-0.56828">
        <ele>159.72</ele>
        <time>2017-01-07T08:51:12Z</time>
      </trkpt>
      <trkpt lat="43.43723" lon="-0.5683">
        <ele>160.2</ele>
        <time>2017-01-07T08:51:13Z</time>
      </trkpt>
      <trkpt lat="43.43724" lon="-0.5683">
        <ele>160.68</ele>
        <time>2017-01-07T08:51:14Z</time>
      </trkpt>
      <trkpt lat="43.43726" lon="-0.56831">
        <ele>161.16</ele>
        <time>2017-01-07T08:51:15Z</time>
      </trkpt>
      <trkpt lat="43.43727" lon="-0.56831">
        <ele>161.64</ele>
        <time>2017-01-07T08:51:16Z</time>
      </trkpt>
      <trkpt lat="43.43729" lon="-0.56831">
        <ele>161.64</ele>
        <time>2017-01-07T08:51:17Z</time>
      </trkpt>
      <trkpt lat="43.43731" lon="-0.56831">
        <ele>161.64</ele>
        <time>2017-01-07T08:51:18Z</time>
      </trkpt>
      <trkpt lat="43.43732" lon="-0.56831">
        <ele>162.12</ele>
        <time>2017-01-07T08:51:19Z</time>
      </trkpt>
      <trkpt lat="43.43754" lon="-0.56833">
        <ele>164.04</ele>
        <time>2017-01-07T08:51:33Z</time>
      </trkpt>
      <trkpt lat="43.43779" lon="-0.56836">
        <ele>163.56</ele>
        <time>2017-01-07T08:51:48Z</time>
      </trkpt>
      <trkpt lat="43.43793" lon="-0.56855">
        <ele>168.37</ele>
        <time>2017-01-07T08:52:03Z</time>
      </trkpt>
      <trkpt lat="43.43808" lon="-0.56885">
        <ele>168.85</ele>
        <time>2017-01-07T08:52:19Z</time>
      </trkpt>
      <trkpt lat="43.43822" lon="-0.56908">
        <ele>169.81</ele>
        <time>2017-01-07T08:52:32Z</time>
      </trkpt>
      <trkpt lat="43.43843" lon="-0.56923">
        <ele>170.77</ele>
        <time>2017-01-07T08:52:45Z</time>
      </trkpt>
      <trkpt lat="43.43844" lon="-0.56923">
        <ele>170.77</ele>
        <time>2017-01-07T08:52:46Z</time>
      </trkpt>
      <trkpt lat="43.43849" lon="-0.56923">
        <ele>171.25</ele>
        <time>2017-01-07T08:52:49Z</time>
      </trkpt>
      <trkpt lat="43.4385" lon="-0.56923">
        <ele>171.73</ele>
        <time>2017-01-07T08:52:50Z</time>
      </trkpt>
      <trkpt lat="43.43852" lon="-0.56924">
        <ele>172.21</ele>
        <time>2017-01-07T08:52:51Z</time>
      </trkpt>
      <trkpt lat="43.43853" lon="-0.56924">
        <ele>172.69</ele>
        <time>2017-01-07T08:52:52Z</time>
      </trkpt>
      <trkpt lat="43.43855" lon="-0.56924">
        <ele>172.69</ele>
        <time>2017-01-07T08:52:53Z</time>
      </trkpt>
      <trkpt lat="43.43857" lon="-0.56925">
        <ele>173.17</ele>
        <time>2017-01-07T08:52:54Z</time>
      </trkpt>
      <trkpt lat="43.43858" lon="-0.56925">
        <ele>173.17</ele>
        <time>2017-01-07T08:52:55Z</time>
      </trkpt>
      <trkpt lat="43.4386" lon="-0.56925">
        <ele>174.14</ele>
        <time>2017-01-07T08:52:56Z</time>
      </trkpt>
      <trkpt lat="43.43862" lon="-0.56926">
        <ele>174.14</ele>
        <time>2017-01-07T08:52:57Z</time>
      </trkpt>
      <trkpt lat="43.43887" lon="-0.56936">
        <ele>174.62</ele>
        <time>2017-01-07T08:53:12Z</time>
      </trkpt>
      <trkpt lat="43.439" lon="-0.56939">
        <ele>175.58</ele>
        <time>2017-01-07T08:53:19Z</time>
      </trkpt>
      <trkpt lat="43.4391" lon="-0.56926">
        <ele>178.46</ele>
        <time>2017-01-07T08:53:28Z</time>
      </trkpt>
      <trkpt lat="43.4391" lon="-0.56916">
        <ele>180.38</ele>
        <time>2017-01-07T08:53:33Z</time>
      </trkpt>
      <trkpt lat="43.43919" lon="-0.56905">
        <ele>182.31</ele>
        <time>2017-01-07T08:53:41Z</time>
      </trkpt>
      <trkpt lat="43.43934" lon="-0.56882">
        <ele>189.52</ele>
        <time>2017-01-07T08:53:57Z</time>
      </trkpt>
      <trkpt lat="43.43951" lon="-0.56864">
        <ele>193.36</ele>
        <time>2017-01-07T08:54:12Z</time>
      </trkpt>
      <trkpt lat="43.43962" lon="-0.56853">
        <ele>197.21</ele>
        <time>2017-01-07T08:54:22Z</time>
      </trkpt>
      <trkpt lat="43.43962" lon="-0.56848">
        <ele>197.69</ele>
        <time>2017-01-07T08:54:25Z</time>
      </trkpt>
      <trkpt lat="43.43955" lon="-0.56825">
        <ele>202.98</ele>
        <time>2017-01-07T08:54:41Z</time>
      </trkpt>
      <trkpt lat="43.43947" lon="-0.56804">
        <ele>204.42</ele>
        <time>2017-01-07T08:54:55Z</time>
      </trkpt>
      <trkpt lat="43.43939" lon="-0.56789">
        <ele>206.34</ele>
        <time>2017-01-07T08:55:07Z</time>
      </trkpt>
      <trkpt lat="43.43933" lon="-0.56768">
        <ele>209.7</ele>
        <time>2017-01-07T08:55:19Z</time>
      </trkpt>
      <trkpt lat="43.43931" lon="-0.56759">
        <ele>212.11</ele>
        <time>2017-01-07T08:55:25Z</time>
      </trkpt>
      <trkpt lat="43.43922" lon="-0.56731">
        <ele>214.03</ele>
        <time>2017-01-07T08:55:41Z</time>
      </trkpt>
      <trkpt lat="43.43921" lon="-0.56729">
        <ele>214.03</ele>
        <time>2017-01-07T08:55:42Z</time>
      </trkpt>
      <trkpt lat="43.43911" lon="-0.56698">
        <ele>214.51</ele>
        <time>2017-01-07T08:55:58Z</time>
      </trkpt>
      <trkpt lat="43.43903" lon="-0.56677">
        <ele>216.43</ele>
        <time>2017-01-07T08:56:10Z</time>
      </trkpt>
      <trkpt lat="43.43896" lon="-0.56658">
        <ele>220.76</ele>
        <time>2017-01-07T08:56:21Z</time>
      </trkpt>
      <trkpt lat="43.43886" lon="-0.56633">
        <ele>222.68</ele>
        <time>2017-01-07T08:56:34Z</time>
      </trkpt>
      <trkpt lat="43.43877" lon="-0.56603">
        <ele>223.16</ele>
        <time>2017-01-07T08:56:49Z</time>
      </trkpt>
      <trkpt lat="43.43865" lon="-0.56568">
        <ele>223.64</ele>
        <time>2017-01-07T08:57:03Z</time>
      </trkpt>
      <trkpt lat="43.43849" lon="-0.56521">
        <ele>222.68</ele>
        <time>2017-01-07T08:57:18Z</time>
      </trkpt>
      <trkpt lat="43.43832" lon="-0.56471">
        <ele>222.68</ele>
        <time>2017-01-07T08:57:32Z</time>
      </trkpt>
      <trkpt lat="43.43827" lon="-0.56456">
        <ele>222.2</ele>
        <time>2017-01-07T08:57:42Z</time>
      </trkpt>
      <trkpt lat="43.43816" lon="-0.56422">
        <ele>221.24</ele>
        <time>2017-01-07T08:57:53Z</time>
      </trkpt>
      <trkpt lat="43.43799" lon="-0.56388">
        <ele>218.36</ele>
        <time>2017-01-07T08:58:03Z</time>
      </trkpt>
      <trkpt lat="43.43796" lon="-0.56384">
        <ele>217.88</ele>
        <time>2017-01-07T08:58:04Z</time>
      </trkpt>
      <trkpt lat="43.43793" lon="-0.56378">
        <ele>217.88</ele>
        <time>2017-01-07T08:58:05Z</time>
      </trkpt>
      <trkpt lat="43.43787" lon="-0.56367">
        <ele>216.91</ele>
        <time>2017-01-07T08:58:07Z</time>
      </trkpt>
      <trkpt lat="43.43775" lon="-0.5634">
        <ele>214.99</ele>
        <time>2017-01-07T08:58:12Z</time>
      </trkpt>
      <trkpt lat="43.43769" lon="-0.56329">
        <ele>214.51</ele>
        <time>2017-01-07T08:58:14Z</time>
      </trkpt>
      <trkpt lat="43.43766" lon="-0.56324">
        <ele>214.03</ele>
        <time>2017-01-07T08:58:15Z</time>
      </trkpt>
      <trkpt lat="43.43759" lon="-0.56314">
        <ele>213.07</ele>
        <time>2017-01-07T08:58:17Z</time>
      </trkpt>
      <trkpt lat="43.43743" lon="-0.56288">
        <ele>211.63</ele>
        <time>2017-01-07T08:58:22Z</time>
      </trkpt>
      <trkpt lat="43.4374" lon="-0.56283">
        <ele>211.15</ele>
        <time>2017-01-07T08:58:23Z</time>
      </trkpt>
      <trkpt lat="43.43733" lon="-0.56272">
        <ele>210.67</ele>
        <time>2017-01-07T08:58:25Z</time>
      </trkpt>
      <trkpt lat="43.43723" lon="-0.56253">
        <ele>209.22</ele>
        <time>2017-01-07T08:58:28Z</time>
      </trkpt>
      <trkpt lat="43.4372" lon="-0.56246">
        <ele>209.22</ele>
        <time>2017-01-07T08:58:29Z</time>
      </trkpt>
      <trkpt lat="43.43674" lon="-0.56162">
        <ele>205.38</ele>
        <time>2017-01-07T08:58:41Z</time>
      </trkpt>
      <trkpt lat="43.43638" lon="-0.56108">
        <ele>204.9</ele>
        <time>2017-01-07T08:58:53Z</time>
      </trkpt>
      <trkpt lat="43.43617" lon="-0.56073">
        <ele>206.82</ele>
        <time>2017-01-07T08:59:06Z</time>
      </trkpt>
      <trkpt lat="43.43594" lon="-0.5604">
        <ele>208.26</ele>
        <time>2017-01-07T08:59:17Z</time>
      </trkpt>
      <trkpt lat="43.43573" lon="-0.55992">
        <ele>211.63</ele>
        <time>2017-01-07T08:59:33Z</time>
      </trkpt>
      <trkpt lat="43.43556" lon="-0.55948">
        <ele>213.07</ele>
        <time>2017-01-07T08:59:47Z</time>
      </trkpt>
      <trkpt lat="43.43548" lon="-0.55901">
        <ele>217.4</ele>
        <time>2017-01-07T09:00:01Z</time>
      </trkpt>
      <trkpt lat="43.43561" lon="-0.55867">
        <ele>218.84</ele>
        <time>2017-01-07T09:00:11Z</time>
      </trkpt>
      <trkpt lat="43.43563" lon="-0.55861">
        <ele>218.84</ele>
        <time>2017-01-07T09:00:12Z</time>
      </trkpt>
      <trkpt lat="43.43564" lon="-0.55854">
        <ele>218.84</ele>
        <time>2017-01-07T09:00:13Z</time>
      </trkpt>
      <trkpt lat="43.43565" lon="-0.55846">
        <ele>218.84</ele>
        <time>2017-01-07T09:00:14Z</time>
      </trkpt>
      <trkpt lat="43.43566" lon="-0.55836">
        <ele>218.84</ele>
        <time>2017-01-07T09:00:15Z</time>
      </trkpt>
      <trkpt lat="43.43568" lon="-0.55816">
        <ele>218.36</ele>
        <time>2017-01-07T09:00:17Z</time>
      </trkpt>
      <trkpt lat="43.43568" lon="-0.55806">
        <ele>218.36</ele>
        <time>2017-01-07T09:00:18Z</time>
      </trkpt>
      <trkpt lat="43.43568" lon="-0.55796">
        <ele>217.88</ele>
        <time>2017-01-07T09:00:19Z</time>
      </trkpt>
      <trkpt lat="43.43566" lon="-0.55758">
        <ele>215.47</ele>
        <time>2017-01-07T09:00:24Z</time>
      </trkpt>
      <trkpt lat="43.43567" lon="-0.55754">
        <ele>214.99</ele>
        <time>2017-01-07T09:00:25Z</time>
      </trkpt>
      <trkpt lat="43.4357" lon="-0.55751">
        <ele>214.99</ele>
        <time>2017-01-07T09:00:26Z</time>
      </trkpt>
      <trkpt lat="43.43572" lon="-0.5575">
        <ele>214.51</ele>
        <time>2017-01-07T09:00:27Z</time>
      </trkpt>
      <trkpt lat="43.43574" lon="-0.55751">
        <ele>214.51</ele>
        <time>2017-01-07T09:00:28Z</time>
      </trkpt>
      <trkpt lat="43.43576" lon="-0.55752">
        <ele>214.03</ele>
        <time>2017-01-07T09:00:29Z</time>
      </trkpt>
      <trkpt lat="43.43577" lon="-0.55754">
        <ele>214.03</ele>
        <time>2017-01-07T09:00:30Z</time>
      </trkpt>
      <trkpt lat="43.43579" lon="-0.55757">
        <ele>214.03</ele>
        <time>2017-01-07T09:00:31Z</time>
      </trkpt>
      <trkpt lat="43.43608" lon="-0.55788">
        <ele>214.03</ele>
        <time>2017-01-07T09:00:47Z</time>
      </trkpt>
      <trkpt lat="43.43635" lon="-0.55818">
        <ele>216.43</ele>
        <time>2017-01-07T09:01:02Z</time>
      </trkpt>
      <trkpt lat="43.43647" lon="-0.5583">
        <ele>217.4</ele>
        <time>2017-01-07T09:01:09Z</time>
      </trkpt>
      <trkpt lat="43.43649" lon="-0.55831">
        <ele>217.4</ele>
        <time>2017-01-07T09:01:10Z</time>
      </trkpt>
      <trkpt lat="43.43675" lon="-0.55853">
        <ele>218.84</ele>
        <time>2017-01-07T09:01:26Z</time>
      </trkpt>
      <trkpt lat="43.43699" lon="-0.55872">
        <ele>221.72</ele>
        <time>2017-01-07T09:01:41Z</time>
      </trkpt>
      <trkpt lat="43.43725" lon="-0.55858">
        <ele>224.12</ele>
        <time>2017-01-07T09:01:58Z</time>
      </trkpt>
      <trkpt lat="43.43744" lon="-0.55839">
        <ele>224.12</ele>
        <time>2017-01-07T09:02:12Z</time>
      </trkpt>
      <trkpt lat="43.43763" lon="-0.55819">
        <ele>226.53</ele>
        <time>2017-01-07T09:02:27Z</time>
      </trkpt>
      <trkpt lat="43.43783" lon="-0.55795">
        <ele>228.45</ele>
        <time>2017-01-07T09:02:43Z</time>
      </trkpt>
      <trkpt lat="43.43793" lon="-0.55784">
        <ele>228.45</ele>
        <time>2017-01-07T09:02:51Z</time>
      </trkpt>
      <trkpt lat="43.43794" lon="-0.55782">
        <ele>228.93</ele>
        <time>2017-01-07T09:02:52Z</time>
      </trkpt>
      <trkpt lat="43.43794" lon="-0.5578">
        <ele>228.93</ele>
        <time>2017-01-07T09:02:53Z</time>
      </trkpt>
      <trkpt lat="43.43795" lon="-0.55778">
        <ele>228.93</ele>
        <time>2017-01-07T09:02:54Z</time>
      </trkpt>
      <trkpt lat="43.43796" lon="-0.55777">
        <ele>229.41</ele>
        <time>2017-01-07T09:02:55Z</time>
      </trkpt>
      <trkpt lat="43.43797" lon="-0.55775">
        <ele>229.41</ele>
        <time>2017-01-07T09:02:56Z</time>
      </trkpt>
      <trkpt lat="43.43798" lon="-0.55773">
        <ele>229.89</ele>
        <time>2017-01-07T09:02:57Z</time>
      </trkpt>
      <trkpt lat="43.43806" lon="-0.55735">
        <ele>232.3</ele>
        <time>2017-01-07T09:03:12Z</time>
      </trkpt>
      <trkpt lat="43.43813" lon="-0.55672">
        <ele>233.26</ele>
        <time>2017-01-07T09:03:31Z</time>
      </trkpt>
      <trkpt lat="43.43819" lon="-0.55614">
        <ele>231.81</ele>
        <time>2017-01-07T09:03:43Z</time>
      </trkpt>
      <trkpt lat="43.43852" lon="-0.55523">
        <ele>229.89</ele>
        <time>2017-01-07T09:04:00Z</time>
      </trkpt>
      <trkpt lat="43.4386" lon="-0.55509">
        <ele>229.41</ele>
        <time>2017-01-07T09:04:03Z</time>
      </trkpt>
      <trkpt lat="43.43867" lon="-0.55493">
        <ele>227.97</ele>
        <time>2017-01-07T09:04:06Z</time>
      </trkpt>
      <trkpt lat="43.43869" lon="-0.55488">
        <ele>227.49</ele>
        <time>2017-01-07T09:04:07Z</time>
      </trkpt>
      <trkpt lat="43.4387" lon="-0.55482">
        <ele>227.01</ele>
        <time>2017-01-07T09:04:08Z</time>
      </trkpt>
      <trkpt lat="43.4387" lon="-0.55476">
        <ele>226.53</ele>
        <time>2017-01-07T09:04:09Z</time>
      </trkpt>
      <trkpt lat="43.4387" lon="-0.55468">
        <ele>226.05</ele>
        <time>2017-01-07T09:04:10Z</time>
      </trkpt>
      <trkpt lat="43.4387" lon="-0.5546">
        <ele>225.09</ele>
        <time>2017-01-07T09:04:11Z</time>
      </trkpt>
      <trkpt lat="43.43868" lon="-0.55452">
        <ele>224.12</ele>
        <time>2017-01-07T09:04:12Z</time>
      </trkpt>
      <trkpt lat="43.43866" lon="-0.55443">
        <ele>223.64</ele>
        <time>2017-01-07T09:04:13Z</time>
      </trkpt>
      <trkpt lat="43.43864" lon="-0.55434">
        <ele>222.68</ele>
        <time>2017-01-07T09:04:14Z</time>
      </trkpt>
      <trkpt lat="43.43862" lon="-0.55424">
        <ele>222.2</ele>
        <time>2017-01-07T09:04:15Z</time>
      </trkpt>
      <trkpt lat="43.43861" lon="-0.55415">
        <ele>221.72</ele>
        <time>2017-01-07T09:04:16Z</time>
      </trkpt>
      <trkpt lat="43.43861" lon="-0.55407">
        <ele>221.24</ele>
        <time>2017-01-07T09:04:17Z</time>
      </trkpt>
      <trkpt lat="43.43862" lon="-0.554">
        <ele>221.24</ele>
        <time>2017-01-07T09:04:18Z</time>
      </trkpt>
      <trkpt lat="43.43863" lon="-0.55394">
        <ele>220.76</ele>
        <time>2017-01-07T09:04:19Z</time>
      </trkpt>
      <trkpt lat="43.43865" lon="-0.5539">
        <ele>220.76</ele>
        <time>2017-01-07T09:04:20Z</time>
      </trkpt>
      <trkpt lat="43.43867" lon="-0.5538">
        <ele>222.2</ele>
        <time>2017-01-07T09:04:24Z</time>
      </trkpt>
      <trkpt lat="43.43869" lon="-0.55379">
        <ele>222.68</ele>
        <time>2017-01-07T09:04:25Z</time>
      </trkpt>
      <trkpt lat="43.43872" lon="-0.55379">
        <ele>222.68</ele>
        <time>2017-01-07T09:04:26Z</time>
      </trkpt>
      <trkpt lat="43.43875" lon="-0.5538">
        <ele>222.68</ele>
        <time>2017-01-07T09:04:27Z</time>
      </trkpt>
      <trkpt lat="43.43878" lon="-0.55382">
        <ele>222.68</ele>
        <time>2017-01-07T09:04:28Z</time>
      </trkpt>
      <trkpt lat="43.43933" lon="-0.55418">
        <ele>219.8</ele>
        <time>2017-01-07T09:04:38Z</time>
      </trkpt>
      <trkpt lat="43.44005" lon="-0.55449">
        <ele>215.95</ele>
        <time>2017-01-07T09:04:48Z</time>
      </trkpt>
      <trkpt lat="43.44012" lon="-0.55453">
        <ele>215.47</ele>
        <time>2017-01-07T09:04:49Z</time>
      </trkpt>
      <trkpt lat="43.44019" lon="-0.55458">
        <ele>215.47</ele>
        <time>2017-01-07T09:04:50Z</time>
      </trkpt>
      <trkpt lat="43.44025" lon="-0.55464">
        <ele>214.99</ele>
        <time>2017-01-07T09:04:51Z</time>
      </trkpt>
      <trkpt lat="43.4403" lon="-0.5547">
        <ele>214.99</ele>
        <time>2017-01-07T09:04:52Z</time>
      </trkpt>
      <trkpt lat="43.44035" lon="-0.55477">
        <ele>214.99</ele>
        <time>2017-01-07T09:04:53Z</time>
      </trkpt>
      <trkpt lat="43.44071" lon="-0.55554">
        <ele>214.99</ele>
        <time>2017-01-07T09:05:05Z</time>
      </trkpt>
      <trkpt lat="43.44086" lon="-0.55586">
        <ele>215.47</ele>
        <time>2017-01-07T09:05:10Z</time>
      </trkpt>
      <trkpt lat="43.44133" lon="-0.55692">
        <ele>217.88</ele>
        <time>2017-01-07T09:05:27Z</time>
      </trkpt>
      <trkpt lat="43.44161" lon="-0.55745">
        <ele>218.36</ele>
        <time>2017-01-07T09:05:39Z</time>
      </trkpt>
      <trkpt lat="43.44215" lon="-0.55793">
        <ele>216.91</ele>
        <time>2017-01-07T09:05:53Z</time>
      </trkpt>
      <trkpt lat="43.4422" lon="-0.55798">
        <ele>216.43</ele>
        <time>2017-01-07T09:05:54Z</time>
      </trkpt>
      <trkpt lat="43.44286" lon="-0.55863">
        <ele>210.67</ele>
        <time>2017-01-07T09:06:07Z</time>
      </trkpt>
      <trkpt lat="43.44299" lon="-0.55878">
        <ele>209.22</ele>
        <time>2017-01-07T09:06:10Z</time>
      </trkpt>
      <trkpt lat="43.44306" lon="-0.55887">
        <ele>208.26</ele>
        <time>2017-01-07T09:06:12Z</time>
      </trkpt>
      <trkpt lat="43.44309" lon="-0.55894">
        <ele>207.78</ele>
        <time>2017-01-07T09:06:13Z</time>
      </trkpt>
      <trkpt lat="43.44315" lon="-0.55908">
        <ele>206.82</ele>
        <time>2017-01-07T09:06:15Z</time>
      </trkpt>
      <trkpt lat="43.44347" lon="-0.55992">
        <ele>196.73</ele>
        <time>2017-01-07T09:06:26Z</time>
      </trkpt>
      <trkpt lat="43.44352" lon="-0.56006">
        <ele>194.8</ele>
        <time>2017-01-07T09:06:28Z</time>
      </trkpt>
      <trkpt lat="43.44355" lon="-0.56012">
        <ele>193.84</ele>
        <time>2017-01-07T09:06:29Z</time>
      </trkpt>
      <trkpt lat="43.44359" lon="-0.56017">
        <ele>192.88</ele>
        <time>2017-01-07T09:06:30Z</time>
      </trkpt>
      <trkpt lat="43.44365" lon="-0.56021">
        <ele>192.4</ele>
        <time>2017-01-07T09:06:31Z</time>
      </trkpt>
      <trkpt lat="43.44371" lon="-0.56024">
        <ele>191.92</ele>
        <time>2017-01-07T09:06:32Z</time>
      </trkpt>
      <trkpt lat="43.44378" lon="-0.56026">
        <ele>190.96</ele>
        <time>2017-01-07T09:06:33Z</time>
      </trkpt>
      <trkpt lat="43.44386" lon="-0.56027">
        <ele>190</ele>
        <time>2017-01-07T09:06:34Z</time>
      </trkpt>
      <trkpt lat="43.44395" lon="-0.56029">
        <ele>189.52</ele>
        <time>2017-01-07T09:06:35Z</time>
      </trkpt>
      <trkpt lat="43.4443" lon="-0.56028">
        <ele>186.15</ele>
        <time>2017-01-07T09:06:39Z</time>
      </trkpt>
      <trkpt lat="43.44439" lon="-0.56024">
        <ele>185.67</ele>
        <time>2017-01-07T09:06:40Z</time>
      </trkpt>
      <trkpt lat="43.44446" lon="-0.56019">
        <ele>184.71</ele>
        <time>2017-01-07T09:06:41Z</time>
      </trkpt>
      <trkpt lat="43.44453" lon="-0.56012">
        <ele>184.71</ele>
        <time>2017-01-07T09:06:42Z</time>
      </trkpt>
      <trkpt lat="43.44458" lon="-0.56004">
        <ele>184.23</ele>
        <time>2017-01-07T09:06:43Z</time>
      </trkpt>
      <trkpt lat="43.44463" lon="-0.55996">
        <ele>184.23</ele>
        <time>2017-01-07T09:06:44Z</time>
      </trkpt>
      <trkpt lat="43.44487" lon="-0.55962">
        <ele>184.71</ele>
        <time>2017-01-07T09:06:50Z</time>
      </trkpt>
      <trkpt lat="43.4449" lon="-0.55955">
        <ele>184.71</ele>
        <time>2017-01-07T09:06:51Z</time>
      </trkpt>
      <trkpt lat="43.44492" lon="-0.55947">
        <ele>184.71</ele>
        <time>2017-01-07T09:06:52Z</time>
      </trkpt>
      <trkpt lat="43.44494" lon="-0.5594">
        <ele>184.71</ele>
        <time>2017-01-07T09:06:53Z</time>
      </trkpt>
      <trkpt lat="43.44495" lon="-0.55932">
        <ele>184.71</ele>
        <time>2017-01-07T09:06:54Z</time>
      </trkpt>
      <trkpt lat="43.44496" lon="-0.55924">
        <ele>184.71</ele>
        <time>2017-01-07T09:06:55Z</time>
      </trkpt>
      <trkpt lat="43.44496" lon="-0.55916">
        <ele>184.71</ele>
        <time>2017-01-07T09:06:56Z</time>
      </trkpt>
      <trkpt lat="43.44498" lon="-0.55866">
        <ele>183.75</ele>
        <time>2017-01-07T09:07:02Z</time>
      </trkpt>
      <trkpt lat="43.44493" lon="-0.55825">
        <ele>182.31</ele>
        <time>2017-01-07T09:07:07Z</time>
      </trkpt>
      <trkpt lat="43.44493" lon="-0.55802">
        <ele>181.35</ele>
        <time>2017-01-07T09:07:10Z</time>
      </trkpt>
      <trkpt lat="43.44491" lon="-0.55795">
        <ele>181.35</ele>
        <time>2017-01-07T09:07:11Z</time>
      </trkpt>
      <trkpt lat="43.44489" lon="-0.55789">
        <ele>181.35</ele>
        <time>2017-01-07T09:07:12Z</time>
      </trkpt>
      <trkpt lat="43.44486" lon="-0.55783">
        <ele>180.87</ele>
        <time>2017-01-07T09:07:13Z</time>
      </trkpt>
      <trkpt lat="43.44483" lon="-0.55779">
        <ele>180.87</ele>
        <time>2017-01-07T09:07:14Z</time>
      </trkpt>
      <trkpt lat="43.4448" lon="-0.55774">
        <ele>181.35</ele>
        <time>2017-01-07T09:07:15Z</time>
      </trkpt>
      <trkpt lat="43.44473" lon="-0.55763">
        <ele>181.35</ele>
        <time>2017-01-07T09:07:24Z</time>
      </trkpt>
      <trkpt lat="43.44473" lon="-0.55763">
        <ele>178.94</ele>
        <time>2017-01-07T09:07:45Z</time>
      </trkpt>
      <trkpt lat="43.44473" lon="-0.55762">
        <ele>177.5</ele>
        <time>2017-01-07T09:08:28Z</time>
      </trkpt>
      <trkpt lat="43.44473" lon="-0.55762">
        <ele>178.46</ele>
        <time>2017-01-07T09:09:04Z</time>
      </trkpt>
      <trkpt lat="43.44472" lon="-0.55763">
        <ele>179.42</ele>
        <time>2017-01-07T09:09:35Z</time>
      </trkpt>
      <trkpt lat="43.44473" lon="-0.55762">
        <ele>178.94</ele>
        <time>2017-01-07T09:10:03Z</time>
      </trkpt>
      <trkpt lat="43.44474" lon="-0.5576">
        <ele>178.94</ele>
        <time>2017-01-07T09:10:34Z</time>
      </trkpt>
      <trkpt lat="43.44473" lon="-0.55758">
        <ele>178.46</ele>
        <time>2017-01-07T09:10:58Z</time>
      </trkpt>
      <trkpt lat="43.44473" lon="-0.55759">
        <ele>177.98</ele>
        <time>2017-01-07T09:11:18Z</time>
      </trkpt>
      <trkpt lat="43.44473" lon="-0.55762">
        <ele>179.42</ele>
        <time>2017-01-07T09:11:57Z</time>
      </trkpt>
      <trkpt lat="43.44473" lon="-0.55762">
        <ele>177.98</ele>
        <time>2017-01-07T09:12:27Z</time>
      </trkpt>
      <trkpt lat="43.44474" lon="-0.55761">
        <ele>177.5</ele>
        <time>2017-01-07T09:12:59Z</time>
      </trkpt>
      <trkpt lat="43.44475" lon="-0.5576">
        <ele>178.46</ele>
        <time>2017-01-07T09:13:33Z</time>
      </trkpt>
      <trkpt lat="43.44472" lon="-0.55761">
        <ele>179.42</ele>
        <time>2017-01-07T09:14:02Z</time>
      </trkpt>
      <trkpt lat="43.44444" lon="-0.55723">
        <ele>178.46</ele>
        <time>2017-01-07T09:14:15Z</time>
      </trkpt>
      <trkpt lat="43.44432" lon="-0.55702">
        <ele>179.42</ele>
        <time>2017-01-07T09:14:25Z</time>
      </trkpt>
      <trkpt lat="43.44436" lon="-0.55691">
        <ele>181.35</ele>
        <time>2017-01-07T09:14:30Z</time>
      </trkpt>
      <trkpt lat="43.44453" lon="-0.5565">
        <ele>177.02</ele>
        <time>2017-01-07T09:14:42Z</time>
      </trkpt>
      <trkpt lat="43.44436" lon="-0.55628">
        <ele>175.1</ele>
        <time>2017-01-07T09:14:48Z</time>
      </trkpt>
      <trkpt lat="43.44434" lon="-0.55624">
        <ele>174.62</ele>
        <time>2017-01-07T09:14:49Z</time>
      </trkpt>
      <trkpt lat="43.44432" lon="-0.55621">
        <ele>174.62</ele>
        <time>2017-01-07T09:14:50Z</time>
      </trkpt>
      <trkpt lat="43.44431" lon="-0.55618">
        <ele>174.14</ele>
        <time>2017-01-07T09:14:51Z</time>
      </trkpt>
      <trkpt lat="43.44431" lon="-0.55616">
        <ele>174.14</ele>
        <time>2017-01-07T09:14:52Z</time>
      </trkpt>
      <trkpt lat="43.4443" lon="-0.55609">
        <ele>173.17</ele>
        <time>2017-01-07T09:14:56Z</time>
      </trkpt>
      <trkpt lat="43.4443" lon="-0.55607">
        <ele>173.17</ele>
        <time>2017-01-07T09:14:57Z</time>
      </trkpt>
      <trkpt lat="43.4443" lon="-0.55604">
        <ele>172.69</ele>
        <time>2017-01-07T09:14:58Z</time>
      </trkpt>
      <trkpt lat="43.4443" lon="-0.55601">
        <ele>172.69</ele>
        <time>2017-01-07T09:14:59Z</time>
      </trkpt>
      <trkpt lat="43.44429" lon="-0.55597">
        <ele>172.21</ele>
        <time>2017-01-07T09:15:00Z</time>
      </trkpt>
      <trkpt lat="43.44428" lon="-0.55595">
        <ele>172.21</ele>
        <time>2017-01-07T09:15:01Z</time>
      </trkpt>
      <trkpt lat="43.44427" lon="-0.55592">
        <ele>172.21</ele>
        <time>2017-01-07T09:15:02Z</time>
      </trkpt>
      <trkpt lat="43.44408" lon="-0.55573">
        <ele>174.14</ele>
        <time>2017-01-07T09:15:15Z</time>
      </trkpt>
      <trkpt lat="43.44389" lon="-0.55547">
        <ele>175.58</ele>
        <time>2017-01-07T09:15:29Z</time>
      </trkpt>
      <trkpt lat="43.44366" lon="-0.55509">
        <ele>176.06</ele>
        <time>2017-01-07T09:15:46Z</time>
      </trkpt>
      <trkpt lat="43.4434" lon="-0.555">
        <ele>177.5</ele>
        <time>2017-01-07T09:16:00Z</time>
      </trkpt>
      <trkpt lat="43.44318" lon="-0.55486">
        <ele>179.9</ele>
        <time>2017-01-07T09:16:13Z</time>
      </trkpt>
      <trkpt lat="43.44309" lon="-0.55481">
        <ele>182.31</ele>
        <time>2017-01-07T09:16:26Z</time>
      </trkpt>
      <trkpt lat="43.44296" lon="-0.55472">
        <ele>187.59</ele>
        <time>2017-01-07T09:16:43Z</time>
      </trkpt>
      <trkpt lat="43.44289" lon="-0.55462">
        <ele>193.36</ele>
        <time>2017-01-07T09:17:00Z</time>
      </trkpt>
      <trkpt lat="43.44285" lon="-0.55456">
        <ele>196.25</ele>
        <time>2017-01-07T09:17:16Z</time>
      </trkpt>
      <trkpt lat="43.44283" lon="-0.55453">
        <ele>197.69</ele>
        <time>2017-01-07T09:17:31Z</time>
      </trkpt>
      <trkpt lat="43.44276" lon="-0.55445">
        <ele>199.61</ele>
        <time>2017-01-07T09:17:51Z</time>
      </trkpt>
      <trkpt lat="43.44274" lon="-0.55441">
        <ele>200.09</ele>
        <time>2017-01-07T09:18:05Z</time>
      </trkpt>
      <trkpt lat="43.44266" lon="-0.55433">
        <ele>202.01</ele>
        <time>2017-01-07T09:18:22Z</time>
      </trkpt>
      <trkpt lat="43.44265" lon="-0.5543">
        <ele>202.01</ele>
        <time>2017-01-07T09:18:25Z</time>
      </trkpt>
      <trkpt lat="43.44264" lon="-0.55427">
        <ele>201.53</ele>
        <time>2017-01-07T09:18:27Z</time>
      </trkpt>
      <trkpt lat="43.44264" lon="-0.55425">
        <ele>201.53</ele>
        <time>2017-01-07T09:18:28Z</time>
      </trkpt>
      <trkpt lat="43.44273" lon="-0.55389">
        <ele>198.17</ele>
        <time>2017-01-07T09:18:43Z</time>
      </trkpt>
      <trkpt lat="43.44273" lon="-0.55341">
        <ele>191.92</ele>
        <time>2017-01-07T09:18:54Z</time>
      </trkpt>
      <trkpt lat="43.44271" lon="-0.55283">
        <ele>183.27</ele>
        <time>2017-01-07T09:19:07Z</time>
      </trkpt>
      <trkpt lat="43.44266" lon="-0.55261">
        <ele>181.35</ele>
        <time>2017-01-07T09:19:10Z</time>
      </trkpt>
      <trkpt lat="43.44265" lon="-0.55254">
        <ele>180.87</ele>
        <time>2017-01-07T09:19:11Z</time>
      </trkpt>
      <trkpt lat="43.44262" lon="-0.55228">
        <ele>177.98</ele>
        <time>2017-01-07T09:19:15Z</time>
      </trkpt>
      <trkpt lat="43.44262" lon="-0.5522">
        <ele>177.5</ele>
        <time>2017-01-07T09:19:16Z</time>
      </trkpt>
      <trkpt lat="43.44261" lon="-0.55214">
        <ele>176.54</ele>
        <time>2017-01-07T09:19:17Z</time>
      </trkpt>
      <trkpt lat="43.4426" lon="-0.55208">
        <ele>176.06</ele>
        <time>2017-01-07T09:19:18Z</time>
      </trkpt>
      <trkpt lat="43.44258" lon="-0.55202">
        <ele>175.58</ele>
        <time>2017-01-07T09:19:19Z</time>
      </trkpt>
      <trkpt lat="43.44256" lon="-0.55197">
        <ele>175.58</ele>
        <time>2017-01-07T09:19:20Z</time>
      </trkpt>
      <trkpt lat="43.44253" lon="-0.55194">
        <ele>175.58</ele>
        <time>2017-01-07T09:19:21Z</time>
      </trkpt>
      <trkpt lat="43.44251" lon="-0.55191">
        <ele>175.58</ele>
        <time>2017-01-07T09:19:22Z</time>
      </trkpt>
      <trkpt lat="43.44249" lon="-0.55189">
        <ele>176.06</ele>
        <time>2017-01-07T09:19:23Z</time>
      </trkpt>
      <trkpt lat="43.44233" lon="-0.55154">
        <ele>179.42</ele>
        <time>2017-01-07T09:19:39Z</time>
      </trkpt>
      <trkpt lat="43.44224" lon="-0.55104">
        <ele>179.42</ele>
        <time>2017-01-07T09:19:55Z</time>
      </trkpt>
      <trkpt lat="43.44221" lon="-0.55085">
        <ele>178.46</ele>
        <time>2017-01-07T09:20:07Z</time>
      </trkpt>
      <trkpt lat="43.4422" lon="-0.55076">
        <ele>178.46</ele>
        <time>2017-01-07T09:20:16Z</time>
      </trkpt>
      <trkpt lat="43.44214" lon="-0.55051">
        <ele>178.94</ele>
        <time>2017-01-07T09:20:27Z</time>
      </trkpt>
      <trkpt lat="43.44193" lon="-0.55012">
        <ele>180.38</ele>
        <time>2017-01-07T09:20:41Z</time>
      </trkpt>
      <trkpt lat="43.44167" lon="-0.54953">
        <ele>178.94</ele>
        <time>2017-01-07T09:20:58Z</time>
      </trkpt>
      <trkpt lat="43.44139" lon="-0.54889">
        <ele>176.54</ele>
        <time>2017-01-07T09:21:12Z</time>
      </trkpt>
      <trkpt lat="43.44123" lon="-0.54849">
        <ele>181.35</ele>
        <time>2017-01-07T09:21:27Z</time>
      </trkpt>
      <trkpt lat="43.44117" lon="-0.5481">
        <ele>185.19</ele>
        <time>2017-01-07T09:21:40Z</time>
      </trkpt>
      <trkpt lat="43.44109" lon="-0.54759">
        <ele>184.23</ele>
        <time>2017-01-07T09:21:55Z</time>
      </trkpt>
      <trkpt lat="43.44107" lon="-0.5474">
        <ele>183.27</ele>
        <time>2017-01-07T09:22:04Z</time>
      </trkpt>
      <trkpt lat="43.44106" lon="-0.54737">
        <ele>182.79</ele>
        <time>2017-01-07T09:22:24Z</time>
      </trkpt>
      <trkpt lat="43.44105" lon="-0.54734">
        <ele>182.31</ele>
        <time>2017-01-07T09:22:25Z</time>
      </trkpt>
      <trkpt lat="43.44105" lon="-0.54732">
        <ele>182.31</ele>
        <time>2017-01-07T09:22:26Z</time>
      </trkpt>
      <trkpt lat="43.44104" lon="-0.54728">
        <ele>181.83</ele>
        <time>2017-01-07T09:22:27Z</time>
      </trkpt>
      <trkpt lat="43.44104" lon="-0.54725">
        <ele>181.83</ele>
        <time>2017-01-07T09:22:28Z</time>
      </trkpt>
      <trkpt lat="43.44104" lon="-0.5472">
        <ele>181.35</ele>
        <time>2017-01-07T09:22:29Z</time>
      </trkpt>
      <trkpt lat="43.44101" lon="-0.54698">
        <ele>179.42</ele>
        <time>2017-01-07T09:22:38Z</time>
      </trkpt>
      <trkpt lat="43.44079" lon="-0.54671">
        <ele>179.9</ele>
        <time>2017-01-07T09:22:51Z</time>
      </trkpt>
      <trkpt lat="43.44059" lon="-0.54639">
        <ele>181.83</ele>
        <time>2017-01-07T09:23:04Z</time>
      </trkpt>
      <trkpt lat="43.44035" lon="-0.54625">
        <ele>185.19</ele>
        <time>2017-01-07T09:23:16Z</time>
      </trkpt>
      <trkpt lat="43.43997" lon="-0.54608">
        <ele>183.27</ele>
        <time>2017-01-07T09:23:29Z</time>
      </trkpt>
      <trkpt lat="43.43993" lon="-0.54605">
        <ele>182.79</ele>
        <time>2017-01-07T09:23:30Z</time>
      </trkpt>
      <trkpt lat="43.43952" lon="-0.54572">
        <ele>177.5</ele>
        <time>2017-01-07T09:23:41Z</time>
      </trkpt>
      <trkpt lat="43.43943" lon="-0.54566">
        <ele>177.02</ele>
        <time>2017-01-07T09:23:49Z</time>
      </trkpt>
      <trkpt lat="43.43942" lon="-0.54565">
        <ele>176.54</ele>
        <time>2017-01-07T09:23:50Z</time>
      </trkpt>
      <trkpt lat="43.43941" lon="-0.54564">
        <ele>176.54</ele>
        <time>2017-01-07T09:23:51Z</time>
      </trkpt>
      <trkpt lat="43.43939" lon="-0.54562">
        <ele>176.54</ele>
        <time>2017-01-07T09:23:52Z</time>
      </trkpt>
      <trkpt lat="43.43915" lon="-0.54535">
        <ele>175.1</ele>
        <time>2017-01-07T09:24:03Z</time>
      </trkpt>
      <trkpt lat="43.439" lon="-0.54524">
        <ele>175.1</ele>
        <time>2017-01-07T09:24:09Z</time>
      </trkpt>
      <trkpt lat="43.43888" lon="-0.54532">
        <ele>176.54</ele>
        <time>2017-01-07T09:24:15Z</time>
      </trkpt>
      <trkpt lat="43.43878" lon="-0.54548">
        <ele>179.42</ele>
        <time>2017-01-07T09:24:23Z</time>
      </trkpt>
      <trkpt lat="43.43865" lon="-0.54542">
        <ele>180.38</ele>
        <time>2017-01-07T09:24:33Z</time>
      </trkpt>
      <trkpt lat="43.43855" lon="-0.54534">
        <ele>179.42</ele>
        <time>2017-01-07T09:24:40Z</time>
      </trkpt>
      <trkpt lat="43.43841" lon="-0.54534">
        <ele>178.46</ele>
        <time>2017-01-07T09:24:47Z</time>
      </trkpt>
      <trkpt lat="43.43815" lon="-0.54524">
        <ele>179.42</ele>
        <time>2017-01-07T09:25:00Z</time>
      </trkpt>
      <trkpt lat="43.4379" lon="-0.54517">
        <ele>180.38</ele>
        <time>2017-01-07T09:25:12Z</time>
      </trkpt>
      <trkpt lat="43.43768" lon="-0.54502">
        <ele>180.38</ele>
        <time>2017-01-07T09:25:25Z</time>
      </trkpt>
      <trkpt lat="43.43761" lon="-0.54498">
        <ele>180.87</ele>
        <time>2017-01-07T09:25:36Z</time>
      </trkpt>
      <trkpt lat="43.43761" lon="-0.54492">
        <ele>180.87</ele>
        <time>2017-01-07T09:25:48Z</time>
      </trkpt>
      <trkpt lat="43.43756" lon="-0.54467">
        <ele>180.87</ele>
        <time>2017-01-07T09:26:08Z</time>
      </trkpt>
      <trkpt lat="43.43757" lon="-0.54465">
        <ele>180.87</ele>
        <time>2017-01-07T09:26:10Z</time>
      </trkpt>
      <trkpt lat="43.43761" lon="-0.54446">
        <ele>181.35</ele>
        <time>2017-01-07T09:26:24Z</time>
      </trkpt>
      <trkpt lat="43.43763" lon="-0.54439">
        <ele>183.75</ele>
        <time>2017-01-07T09:26:36Z</time>
      </trkpt>
      <trkpt lat="43.43763" lon="-0.54439">
        <ele>185.67</ele>
        <time>2017-01-07T09:26:59Z</time>
      </trkpt>
      <trkpt lat="43.43765" lon="-0.54439">
        <ele>187.11</ele>
        <time>2017-01-07T09:27:17Z</time>
      </trkpt>
      <trkpt lat="43.43791" lon="-0.54446">
        <ele>185.67</ele>
        <time>2017-01-07T09:27:31Z</time>
      </trkpt>
      <trkpt lat="43.43818" lon="-0.54458">
        <ele>184.71</ele>
        <time>2017-01-07T09:27:43Z</time>
      </trkpt>
      <trkpt lat="43.43847" lon="-0.54467">
        <ele>183.27</ele>
        <time>2017-01-07T09:27:57Z</time>
      </trkpt>
      <trkpt lat="43.43848" lon="-0.54468">
        <ele>183.27</ele>
        <time>2017-01-07T09:27:58Z</time>
      </trkpt>
      <trkpt lat="43.43859" lon="-0.54496">
        <ele>180.87</ele>
        <time>2017-01-07T09:28:11Z</time>
      </trkpt>
      <trkpt lat="43.43865" lon="-0.54526">
        <ele>178.46</ele>
        <time>2017-01-07T09:28:27Z</time>
      </trkpt>
      <trkpt lat="43.43875" lon="-0.5455">
        <ele>178.94</ele>
        <time>2017-01-07T09:28:38Z</time>
      </trkpt>
      <trkpt lat="43.43868" lon="-0.54569">
        <ele>179.9</ele>
        <time>2017-01-07T09:28:53Z</time>
      </trkpt>
      <trkpt lat="43.4387" lon="-0.54569">
        <ele>180.38</ele>
        <time>2017-01-07T09:28:59Z</time>
      </trkpt>
      <trkpt lat="43.43888" lon="-0.54528">
        <ele>176.54</ele>
        <time>2017-01-07T09:29:11Z</time>
      </trkpt>
      <trkpt lat="43.43897" lon="-0.5452">
        <ele>175.1</ele>
        <time>2017-01-07T09:29:15Z</time>
      </trkpt>
      <trkpt lat="43.43906" lon="-0.54525">
        <ele>174.14</ele>
        <time>2017-01-07T09:29:19Z</time>
      </trkpt>
      <trkpt lat="43.4393" lon="-0.5455">
        <ele>171.25</ele>
        <time>2017-01-07T09:29:33Z</time>
      </trkpt>
      <trkpt lat="43.43952" lon="-0.54572">
        <ele>173.17</ele>
        <time>2017-01-07T09:29:46Z</time>
      </trkpt>
      <trkpt lat="43.43973" lon="-0.54591">
        <ele>176.06</ele>
        <time>2017-01-07T09:29:58Z</time>
      </trkpt>
      <trkpt lat="43.43996" lon="-0.54608">
        <ele>181.83</ele>
        <time>2017-01-07T09:30:10Z</time>
      </trkpt>
      <trkpt lat="43.4403" lon="-0.5462">
        <ele>182.31</ele>
        <time>2017-01-07T09:30:24Z</time>
      </trkpt>
      <trkpt lat="43.44057" lon="-0.54643">
        <ele>180.87</ele>
        <time>2017-01-07T09:30:35Z</time>
      </trkpt>
      <trkpt lat="43.44081" lon="-0.54677">
        <ele>180.87</ele>
        <time>2017-01-07T09:30:46Z</time>
      </trkpt>
      <trkpt lat="43.44088" lon="-0.54684">
        <ele>180.87</ele>
        <time>2017-01-07T09:30:48Z</time>
      </trkpt>
      <trkpt lat="43.44091" lon="-0.54688">
        <ele>180.87</ele>
        <time>2017-01-07T09:30:49Z</time>
      </trkpt>
      <trkpt lat="43.44093" lon="-0.54692">
        <ele>180.87</ele>
        <time>2017-01-07T09:30:50Z</time>
      </trkpt>
      <trkpt lat="43.44104" lon="-0.5471">
        <ele>181.35</ele>
        <time>2017-01-07T09:30:57Z</time>
      </trkpt>
      <trkpt lat="43.44104" lon="-0.54713">
        <ele>181.35</ele>
        <time>2017-01-07T09:30:58Z</time>
      </trkpt>
      <trkpt lat="43.44104" lon="-0.54716">
        <ele>181.35</ele>
        <time>2017-01-07T09:30:59Z</time>
      </trkpt>
      <trkpt lat="43.44104" lon="-0.54718">
        <ele>181.35</ele>
        <time>2017-01-07T09:31:00Z</time>
      </trkpt>
      <trkpt lat="43.44104" lon="-0.54721">
        <ele>181.83</ele>
        <time>2017-01-07T09:31:01Z</time>
      </trkpt>
      <trkpt lat="43.44104" lon="-0.54723">
        <ele>181.83</ele>
        <time>2017-01-07T09:31:02Z</time>
      </trkpt>
      <trkpt lat="43.44103" lon="-0.54724">
        <ele>182.31</ele>
        <time>2017-01-07T09:31:03Z</time>
      </trkpt>
      <trkpt lat="43.44102" lon="-0.54726">
        <ele>182.31</ele>
        <time>2017-01-07T09:31:04Z</time>
      </trkpt>
      <trkpt lat="43.44101" lon="-0.54728">
        <ele>182.79</ele>
        <time>2017-01-07T09:31:05Z</time>
      </trkpt>
      <trkpt lat="43.441" lon="-0.5473">
        <ele>182.79</ele>
        <time>2017-01-07T09:31:06Z</time>
      </trkpt>
      <trkpt lat="43.44099" lon="-0.54732">
        <ele>183.27</ele>
        <time>2017-01-07T09:31:07Z</time>
      </trkpt>
      <trkpt lat="43.44098" lon="-0.54733">
        <ele>183.27</ele>
        <time>2017-01-07T09:31:08Z</time>
      </trkpt>
      <trkpt lat="43.44097" lon="-0.54734">
        <ele>183.75</ele>
        <time>2017-01-07T09:31:09Z</time>
      </trkpt>
      <trkpt lat="43.44096" lon="-0.54736">
        <ele>183.75</ele>
        <time>2017-01-07T09:31:10Z</time>
      </trkpt>
      <trkpt lat="43.44075" lon="-0.54734">
        <ele>186.15</ele>
        <time>2017-01-07T09:31:25Z</time>
      </trkpt>
      <trkpt lat="43.44051" lon="-0.54724">
        <ele>188.08</ele>
        <time>2017-01-07T09:31:41Z</time>
      </trkpt>
      <trkpt lat="43.44029" lon="-0.54715">
        <ele>191.44</ele>
        <time>2017-01-07T09:31:56Z</time>
      </trkpt>
      <trkpt lat="43.44027" lon="-0.54715">
        <ele>191.44</ele>
        <time>2017-01-07T09:31:57Z</time>
      </trkpt>
      <trkpt lat="43.44004" lon="-0.54715">
        <ele>194.32</ele>
        <time>2017-01-07T09:32:12Z</time>
      </trkpt>
      <trkpt lat="43.4398" lon="-0.54728">
        <ele>197.69</ele>
        <time>2017-01-07T09:32:30Z</time>
      </trkpt>
      <trkpt lat="43.4396" lon="-0.54738">
        <ele>201.05</ele>
        <time>2017-01-07T09:32:46Z</time>
      </trkpt>
      <trkpt lat="43.43938" lon="-0.5475">
        <ele>204.9</ele>
        <time>2017-01-07T09:33:03Z</time>
      </trkpt>
      <trkpt lat="43.43916" lon="-0.54764">
        <ele>208.26</ele>
        <time>2017-01-07T09:33:19Z</time>
      </trkpt>
      <trkpt lat="43.43896" lon="-0.5478">
        <ele>211.15</ele>
        <time>2017-01-07T09:33:35Z</time>
      </trkpt>
      <trkpt lat="43.43875" lon="-0.54797">
        <ele>213.55</ele>
        <time>2017-01-07T09:33:51Z</time>
      </trkpt>
      <trkpt lat="43.43854" lon="-0.54818">
        <ele>216.43</ele>
        <time>2017-01-07T09:34:08Z</time>
      </trkpt>
      <trkpt lat="43.43835" lon="-0.5484">
        <ele>217.4</ele>
        <time>2017-01-07T09:34:23Z</time>
      </trkpt>
      <trkpt lat="43.43807" lon="-0.54872">
        <ele>219.32</ele>
        <time>2017-01-07T09:34:44Z</time>
      </trkpt>
      <trkpt lat="43.43784" lon="-0.54894">
        <ele>221.24</ele>
        <time>2017-01-07T09:35:00Z</time>
      </trkpt>
      <trkpt lat="43.43759" lon="-0.54914">
        <ele>223.64</ele>
        <time>2017-01-07T09:35:16Z</time>
      </trkpt>
      <trkpt lat="43.43734" lon="-0.54937">
        <ele>222.68</ele>
        <time>2017-01-07T09:35:30Z</time>
      </trkpt>
      <trkpt lat="43.43702" lon="-0.54988">
        <ele>223.16</ele>
        <time>2017-01-07T09:35:45Z</time>
      </trkpt>
      <trkpt lat="43.43671" lon="-0.55035">
        <ele>227.01</ele>
        <time>2017-01-07T09:36:02Z</time>
      </trkpt>
      <trkpt lat="43.43655" lon="-0.55057">
        <ele>230.85</ele>
        <time>2017-01-07T09:36:14Z</time>
      </trkpt>
      <trkpt lat="43.43639" lon="-0.55085">
        <ele>232.78</ele>
        <time>2017-01-07T09:36:30Z</time>
      </trkpt>
      <trkpt lat="43.43623" lon="-0.5512">
        <ele>236.62</ele>
        <time>2017-01-07T09:36:47Z</time>
      </trkpt>
      <trkpt lat="43.43609" lon="-0.55154">
        <ele>239.02</ele>
        <time>2017-01-07T09:37:04Z</time>
      </trkpt>
      <trkpt lat="43.43597" lon="-0.55189">
        <ele>241.43</ele>
        <time>2017-01-07T09:37:21Z</time>
      </trkpt>
      <trkpt lat="43.43597" lon="-0.55198">
        <ele>242.39</ele>
        <time>2017-01-07T09:37:25Z</time>
      </trkpt>
      <trkpt lat="43.43597" lon="-0.552">
        <ele>242.39</ele>
        <time>2017-01-07T09:37:26Z</time>
      </trkpt>
      <trkpt lat="43.43613" lon="-0.55236">
        <ele>243.83</ele>
        <time>2017-01-07T09:37:43Z</time>
      </trkpt>
      <trkpt lat="43.43612" lon="-0.55277">
        <ele>243.83</ele>
        <time>2017-01-07T09:37:54Z</time>
      </trkpt>
      <trkpt lat="43.43605" lon="-0.55327">
        <ele>243.35</ele>
        <time>2017-01-07T09:38:09Z</time>
      </trkpt>
      <trkpt lat="43.43603" lon="-0.5533">
        <ele>243.35</ele>
        <time>2017-01-07T09:38:11Z</time>
      </trkpt>
      <trkpt lat="43.43602" lon="-0.55332">
        <ele>243.35</ele>
        <time>2017-01-07T09:38:12Z</time>
      </trkpt>
      <trkpt lat="43.436" lon="-0.55333">
        <ele>243.35</ele>
        <time>2017-01-07T09:38:13Z</time>
      </trkpt>
      <trkpt lat="43.43597" lon="-0.55334">
        <ele>242.87</ele>
        <time>2017-01-07T09:38:14Z</time>
      </trkpt>
      <trkpt lat="43.43594" lon="-0.55333">
        <ele>242.87</ele>
        <time>2017-01-07T09:38:15Z</time>
      </trkpt>
      <trkpt lat="43.43592" lon="-0.55332">
        <ele>242.87</ele>
        <time>2017-01-07T09:38:16Z</time>
      </trkpt>
      <trkpt lat="43.43558" lon="-0.55319">
        <ele>243.35</ele>
        <time>2017-01-07T09:38:26Z</time>
      </trkpt>
      <trkpt lat="43.43554" lon="-0.5532">
        <ele>242.87</ele>
        <time>2017-01-07T09:38:27Z</time>
      </trkpt>
      <trkpt lat="43.4355" lon="-0.55323">
        <ele>242.39</ele>
        <time>2017-01-07T09:38:28Z</time>
      </trkpt>
      <trkpt lat="43.43545" lon="-0.55327">
        <ele>241.91</ele>
        <time>2017-01-07T09:38:29Z</time>
      </trkpt>
      <trkpt lat="43.4354" lon="-0.55332">
        <ele>241.43</ele>
        <time>2017-01-07T09:38:30Z</time>
      </trkpt>
      <trkpt lat="43.43467" lon="-0.55402">
        <ele>233.26</ele>
        <time>2017-01-07T09:38:41Z</time>
      </trkpt>
      <trkpt lat="43.4346" lon="-0.55412">
        <ele>231.81</ele>
        <time>2017-01-07T09:38:42Z</time>
      </trkpt>
      <trkpt lat="43.43453" lon="-0.55425">
        <ele>230.85</ele>
        <time>2017-01-07T09:38:43Z</time>
      </trkpt>
      <trkpt lat="43.43447" lon="-0.55437">
        <ele>229.41</ele>
        <time>2017-01-07T09:38:44Z</time>
      </trkpt>
      <trkpt lat="43.43442" lon="-0.55452">
        <ele>227.97</ele>
        <time>2017-01-07T09:38:45Z</time>
      </trkpt>
      <trkpt lat="43.43438" lon="-0.55466">
        <ele>227.01</ele>
        <time>2017-01-07T09:38:46Z</time>
      </trkpt>
      <trkpt lat="43.43434" lon="-0.55483">
        <ele>225.57</ele>
        <time>2017-01-07T09:38:47Z</time>
      </trkpt>
      <trkpt lat="43.43405" lon="-0.55618">
        <ele>217.4</ele>
        <time>2017-01-07T09:38:57Z</time>
      </trkpt>
      <trkpt lat="43.43402" lon="-0.55635">
        <ele>215.95</ele>
        <time>2017-01-07T09:38:59Z</time>
      </trkpt>
      <trkpt lat="43.43401" lon="-0.55641">
        <ele>215.47</ele>
        <time>2017-01-07T09:39:00Z</time>
      </trkpt>
      <trkpt lat="43.43399" lon="-0.55645">
        <ele>214.51</ele>
        <time>2017-01-07T09:39:01Z</time>
      </trkpt>
      <trkpt lat="43.43396" lon="-0.55648">
        <ele>214.03</ele>
        <time>2017-01-07T09:39:02Z</time>
      </trkpt>
      <trkpt lat="43.43391" lon="-0.5565">
        <ele>213.55</ele>
        <time>2017-01-07T09:39:03Z</time>
      </trkpt>
      <trkpt lat="43.43387" lon="-0.55651">
        <ele>212.59</ele>
        <time>2017-01-07T09:39:04Z</time>
      </trkpt>
      <trkpt lat="43.43382" lon="-0.55649">
        <ele>212.11</ele>
        <time>2017-01-07T09:39:05Z</time>
      </trkpt>
      <trkpt lat="43.43377" lon="-0.55646">
        <ele>211.63</ele>
        <time>2017-01-07T09:39:06Z</time>
      </trkpt>
      <trkpt lat="43.43371" lon="-0.55642">
        <ele>211.15</ele>
        <time>2017-01-07T09:39:07Z</time>
      </trkpt>
      <trkpt lat="43.43331" lon="-0.55604">
        <ele>204.9</ele>
        <time>2017-01-07T09:39:13Z</time>
      </trkpt>
      <trkpt lat="43.43325" lon="-0.55595">
        <ele>203.94</ele>
        <time>2017-01-07T09:39:14Z</time>
      </trkpt>
      <trkpt lat="43.43319" lon="-0.55585">
        <ele>202.98</ele>
        <time>2017-01-07T09:39:15Z</time>
      </trkpt>
      <trkpt lat="43.43315" lon="-0.55574">
        <ele>201.53</ele>
        <time>2017-01-07T09:39:16Z</time>
      </trkpt>
      <trkpt lat="43.4331" lon="-0.55561">
        <ele>200.57</ele>
        <time>2017-01-07T09:39:17Z</time>
      </trkpt>
      <trkpt lat="43.43292" lon="-0.55485">
        <ele>194.32</ele>
        <time>2017-01-07T09:39:23Z</time>
      </trkpt>
      <trkpt lat="43.43288" lon="-0.55478">
        <ele>193.36</ele>
        <time>2017-01-07T09:39:24Z</time>
      </trkpt>
      <trkpt lat="43.43283" lon="-0.55474">
        <ele>192.4</ele>
        <time>2017-01-07T09:39:25Z</time>
      </trkpt>
      <trkpt lat="43.43276" lon="-0.55471">
        <ele>191.44</ele>
        <time>2017-01-07T09:39:26Z</time>
      </trkpt>
      <trkpt lat="43.43269" lon="-0.5547">
        <ele>190.96</ele>
        <time>2017-01-07T09:39:27Z</time>
      </trkpt>
      <trkpt lat="43.43262" lon="-0.5547">
        <ele>190</ele>
        <time>2017-01-07T09:39:28Z</time>
      </trkpt>
      <trkpt lat="43.43256" lon="-0.5547">
        <ele>189.52</ele>
        <time>2017-01-07T09:39:29Z</time>
      </trkpt>
      <trkpt lat="43.43176" lon="-0.5546">
        <ele>187.59</ele>
        <time>2017-01-07T09:39:43Z</time>
      </trkpt>
      <trkpt lat="43.43159" lon="-0.55453">
        <ele>188.56</ele>
        <time>2017-01-07T09:39:47Z</time>
      </trkpt>
      <trkpt lat="43.43155" lon="-0.55449">
        <ele>189.04</ele>
        <time>2017-01-07T09:39:48Z</time>
      </trkpt>
      <trkpt lat="43.43151" lon="-0.55445">
        <ele>189.52</ele>
        <time>2017-01-07T09:39:49Z</time>
      </trkpt>
      <trkpt lat="43.43147" lon="-0.55441">
        <ele>189.52</ele>
        <time>2017-01-07T09:39:50Z</time>
      </trkpt>
      <trkpt lat="43.43144" lon="-0.55436">
        <ele>189.52</ele>
        <time>2017-01-07T09:39:51Z</time>
      </trkpt>
      <trkpt lat="43.4314" lon="-0.55431">
        <ele>190</ele>
        <time>2017-01-07T09:39:52Z</time>
      </trkpt>
      <trkpt lat="43.43137" lon="-0.55425">
        <ele>190</ele>
        <time>2017-01-07T09:39:53Z</time>
      </trkpt>
      <trkpt lat="43.43133" lon="-0.55419">
        <ele>190</ele>
        <time>2017-01-07T09:39:54Z</time>
      </trkpt>
      <trkpt lat="43.43095" lon="-0.55354">
        <ele>189.04</ele>
        <time>2017-01-07T09:40:03Z</time>
      </trkpt>
      <trkpt lat="43.43065" lon="-0.55321">
        <ele>187.11</ele>
        <time>2017-01-07T09:40:08Z</time>
      </trkpt>
      <trkpt lat="43.4306" lon="-0.55313">
        <ele>186.63</ele>
        <time>2017-01-07T09:40:09Z</time>
      </trkpt>
      <trkpt lat="43.43056" lon="-0.55305">
        <ele>186.63</ele>
        <time>2017-01-07T09:40:10Z</time>
      </trkpt>
      <trkpt lat="43.43052" lon="-0.55296">
        <ele>186.63</ele>
        <time>2017-01-07T09:40:11Z</time>
      </trkpt>
      <trkpt lat="43.43049" lon="-0.55288">
        <ele>186.63</ele>
        <time>2017-01-07T09:40:12Z</time>
      </trkpt>
      <trkpt lat="43.43046" lon="-0.55279">
        <ele>186.63</ele>
        <time>2017-01-07T09:40:13Z</time>
      </trkpt>
      <trkpt lat="43.43009" lon="-0.55169">
        <ele>186.15</ele>
        <time>2017-01-07T09:40:27Z</time>
      </trkpt>
      <trkpt lat="43.42983" lon="-0.55111">
        <ele>189.52</ele>
        <time>2017-01-07T09:40:37Z</time>
      </trkpt>
      <trkpt lat="43.42977" lon="-0.55056">
        <ele>192.4</ele>
        <time>2017-01-07T09:40:48Z</time>
      </trkpt>
      <trkpt lat="43.42977" lon="-0.55049">
        <ele>192.4</ele>
        <time>2017-01-07T09:40:49Z</time>
      </trkpt>
      <trkpt lat="43.42977" lon="-0.55019">
        <ele>192.4</ele>
        <time>2017-01-07T09:40:54Z</time>
      </trkpt>
      <trkpt lat="43.42978" lon="-0.54956">
        <ele>190.48</ele>
        <time>2017-01-07T09:41:04Z</time>
      </trkpt>
      <trkpt lat="43.42977" lon="-0.54948">
        <ele>189.52</ele>
        <time>2017-01-07T09:41:05Z</time>
      </trkpt>
      <trkpt lat="43.42976" lon="-0.5494">
        <ele>189.04</ele>
        <time>2017-01-07T09:41:06Z</time>
      </trkpt>
      <trkpt lat="43.42973" lon="-0.54933">
        <ele>188.56</ele>
        <time>2017-01-07T09:41:07Z</time>
      </trkpt>
      <trkpt lat="43.42968" lon="-0.54927">
        <ele>188.08</ele>
        <time>2017-01-07T09:41:08Z</time>
      </trkpt>
      <trkpt lat="43.42963" lon="-0.54922">
        <ele>187.59</ele>
        <time>2017-01-07T09:41:09Z</time>
      </trkpt>
      <trkpt lat="43.42958" lon="-0.54918">
        <ele>187.59</ele>
        <time>2017-01-07T09:41:10Z</time>
      </trkpt>
      <trkpt lat="43.42952" lon="-0.54915">
        <ele>187.11</ele>
        <time>2017-01-07T09:41:11Z</time>
      </trkpt>
      <trkpt lat="43.42946" lon="-0.54912">
        <ele>187.11</ele>
        <time>2017-01-07T09:41:12Z</time>
      </trkpt>
      <trkpt lat="43.42862" lon="-0.54873">
        <ele>188.08</ele>
        <time>2017-01-07T09:41:27Z</time>
      </trkpt>
      <trkpt lat="43.4281" lon="-0.54839">
        <ele>183.75</ele>
        <time>2017-01-07T09:41:36Z</time>
      </trkpt>
      <trkpt lat="43.42805" lon="-0.54837">
        <ele>183.27</ele>
        <time>2017-01-07T09:41:37Z</time>
      </trkpt>
      <trkpt lat="43.42801" lon="-0.54837">
        <ele>182.79</ele>
        <time>2017-01-07T09:41:38Z</time>
      </trkpt>
      <trkpt lat="43.42796" lon="-0.54839">
        <ele>181.83</ele>
        <time>2017-01-07T09:41:39Z</time>
      </trkpt>
      <trkpt lat="43.42791" lon="-0.54843">
        <ele>180.87</ele>
        <time>2017-01-07T09:41:40Z</time>
      </trkpt>
      <trkpt lat="43.42787" lon="-0.5485">
        <ele>179.9</ele>
        <time>2017-01-07T09:41:41Z</time>
      </trkpt>
      <trkpt lat="43.42784" lon="-0.54858">
        <ele>178.94</ele>
        <time>2017-01-07T09:41:42Z</time>
      </trkpt>
      <trkpt lat="43.42781" lon="-0.54869">
        <ele>177.98</ele>
        <time>2017-01-07T09:41:43Z</time>
      </trkpt>
      <trkpt lat="43.42779" lon="-0.5488">
        <ele>177.02</ele>
        <time>2017-01-07T09:41:44Z</time>
      </trkpt>
      <trkpt lat="43.42774" lon="-0.5492">
        <ele>173.66</ele>
        <time>2017-01-07T09:41:47Z</time>
      </trkpt>
      <trkpt lat="43.42773" lon="-0.54935">
        <ele>172.69</ele>
        <time>2017-01-07T09:41:48Z</time>
      </trkpt>
      <trkpt lat="43.42776" lon="-0.54998">
        <ele>166.45</ele>
        <time>2017-01-07T09:41:53Z</time>
      </trkpt>
      <trkpt lat="43.42774" lon="-0.55009">
        <ele>165.48</ele>
        <time>2017-01-07T09:41:54Z</time>
      </trkpt>
      <trkpt lat="43.42771" lon="-0.55019">
        <ele>164.04</ele>
        <time>2017-01-07T09:41:55Z</time>
      </trkpt>
      <trkpt lat="43.42766" lon="-0.5503">
        <ele>162.6</ele>
        <time>2017-01-07T09:41:56Z</time>
      </trkpt>
      <trkpt lat="43.42761" lon="-0.5504">
        <ele>161.16</ele>
        <time>2017-01-07T09:41:57Z</time>
      </trkpt>
      <trkpt lat="43.42754" lon="-0.5506">
        <ele>159.24</ele>
        <time>2017-01-07T09:41:59Z</time>
      </trkpt>
      <trkpt lat="43.42753" lon="-0.5507">
        <ele>158.27</ele>
        <time>2017-01-07T09:42:00Z</time>
      </trkpt>
      <trkpt lat="43.42753" lon="-0.5508">
        <ele>157.79</ele>
        <time>2017-01-07T09:42:01Z</time>
      </trkpt>
      <trkpt lat="43.42755" lon="-0.55092">
        <ele>156.83</ele>
        <time>2017-01-07T09:42:02Z</time>
      </trkpt>
      <trkpt lat="43.42757" lon="-0.55102">
        <ele>155.87</ele>
        <time>2017-01-07T09:42:03Z</time>
      </trkpt>
      <trkpt lat="43.4276" lon="-0.55112">
        <ele>154.91</ele>
        <time>2017-01-07T09:42:04Z</time>
      </trkpt>
      <trkpt lat="43.42762" lon="-0.5512">
        <ele>154.43</ele>
        <time>2017-01-07T09:42:05Z</time>
      </trkpt>
      <trkpt lat="43.42762" lon="-0.55127">
        <ele>153.47</ele>
        <time>2017-01-07T09:42:06Z</time>
      </trkpt>
      <trkpt lat="43.42761" lon="-0.55134">
        <ele>152.99</ele>
        <time>2017-01-07T09:42:07Z</time>
      </trkpt>
      <trkpt lat="43.42758" lon="-0.5514">
        <ele>152.51</ele>
        <time>2017-01-07T09:42:08Z</time>
      </trkpt>
      <trkpt lat="43.42753" lon="-0.55144">
        <ele>151.54</ele>
        <time>2017-01-07T09:42:09Z</time>
      </trkpt>
      <trkpt lat="43.42746" lon="-0.55147">
        <ele>151.06</ele>
        <time>2017-01-07T09:42:10Z</time>
      </trkpt>
      <trkpt lat="43.42739" lon="-0.55147">
        <ele>150.1</ele>
        <time>2017-01-07T09:42:11Z</time>
      </trkpt>
      <trkpt lat="43.42731" lon="-0.55147">
        <ele>149.62</ele>
        <time>2017-01-07T09:42:12Z</time>
      </trkpt>
      <trkpt lat="43.42621" lon="-0.5516">
        <ele>145.3</ele>
        <time>2017-01-07T09:42:26Z</time>
      </trkpt>
      <trkpt lat="43.42569" lon="-0.55177">
        <ele>147.22</ele>
        <time>2017-01-07T09:42:38Z</time>
      </trkpt>
      <trkpt lat="43.42541" lon="-0.55185">
        <ele>150.1</ele>
        <time>2017-01-07T09:42:49Z</time>
      </trkpt>
      <trkpt lat="43.42512" lon="-0.55182">
        <ele>154.43</ele>
        <time>2017-01-07T09:43:04Z</time>
      </trkpt>
      <trkpt lat="43.42482" lon="-0.55195">
        <ele>157.31</ele>
        <time>2017-01-07T09:43:20Z</time>
      </trkpt>
      <trkpt lat="43.42456" lon="-0.55212">
        <ele>159.24</ele>
        <time>2017-01-07T09:43:36Z</time>
      </trkpt>
      <trkpt lat="43.42427" lon="-0.55212">
        <ele>160.68</ele>
        <time>2017-01-07T09:43:53Z</time>
      </trkpt>
      <trkpt lat="43.42397" lon="-0.55209">
        <ele>164.04</ele>
        <time>2017-01-07T09:44:10Z</time>
      </trkpt>
      <trkpt lat="43.4237" lon="-0.55209">
        <ele>167.41</ele>
        <time>2017-01-07T09:44:29Z</time>
      </trkpt>
      <trkpt lat="43.42346" lon="-0.55204">
        <ele>173.17</ele>
        <time>2017-01-07T09:44:47Z</time>
      </trkpt>
      <trkpt lat="43.42341" lon="-0.55201">
        <ele>174.14</ele>
        <time>2017-01-07T09:44:51Z</time>
      </trkpt>
      <trkpt lat="43.42324" lon="-0.55175">
        <ele>177.5</ele>
        <time>2017-01-07T09:45:09Z</time>
      </trkpt>
      <trkpt lat="43.42312" lon="-0.55147">
        <ele>180.38</ele>
        <time>2017-01-07T09:45:26Z</time>
      </trkpt>
      <trkpt lat="43.42301" lon="-0.55119">
        <ele>182.31</ele>
        <time>2017-01-07T09:45:43Z</time>
      </trkpt>
      <trkpt lat="43.42292" lon="-0.55097">
        <ele>184.23</ele>
        <time>2017-01-07T09:45:54Z</time>
      </trkpt>
      <trkpt lat="43.42292" lon="-0.55095">
        <ele>184.23</ele>
        <time>2017-01-07T09:45:55Z</time>
      </trkpt>
      <trkpt lat="43.42291" lon="-0.55094">
        <ele>184.71</ele>
        <time>2017-01-07T09:45:56Z</time>
      </trkpt>
      <trkpt lat="43.42291" lon="-0.55092">
        <ele>184.71</ele>
        <time>2017-01-07T09:45:57Z</time>
      </trkpt>
      <trkpt lat="43.4229" lon="-0.5509">
        <ele>185.19</ele>
        <time>2017-01-07T09:45:58Z</time>
      </trkpt>
      <trkpt lat="43.42285" lon="-0.55066">
        <ele>187.11</ele>
        <time>2017-01-07T09:46:11Z</time>
      </trkpt>
      <trkpt lat="43.42294" lon="-0.55034">
        <ele>186.63</ele>
        <time>2017-01-07T09:46:26Z</time>
      </trkpt>
      <trkpt lat="43.4231" lon="-0.54988">
        <ele>185.19</ele>
        <time>2017-01-07T09:46:42Z</time>
      </trkpt>
      <trkpt lat="43.42289" lon="-0.5494">
        <ele>185.67</ele>
        <time>2017-01-07T09:46:56Z</time>
      </trkpt>
      <trkpt lat="43.42261" lon="-0.54918">
        <ele>187.59</ele>
        <time>2017-01-07T09:47:09Z</time>
      </trkpt>
      <trkpt lat="43.42236" lon="-0.54891">
        <ele>190.48</ele>
        <time>2017-01-07T09:47:26Z</time>
      </trkpt>
      <trkpt lat="43.4221" lon="-0.54867">
        <ele>193.84</ele>
        <time>2017-01-07T09:47:44Z</time>
      </trkpt>
      <trkpt lat="43.42177" lon="-0.54867">
        <ele>194.8</ele>
        <time>2017-01-07T09:47:58Z</time>
      </trkpt>
      <trkpt lat="43.42131" lon="-0.54889">
        <ele>194.32</ele>
        <time>2017-01-07T09:48:10Z</time>
      </trkpt>
      <trkpt lat="43.42127" lon="-0.54893">
        <ele>193.84</ele>
        <time>2017-01-07T09:48:11Z</time>
      </trkpt>
      <trkpt lat="43.42067" lon="-0.54956">
        <ele>191.44</ele>
        <time>2017-01-07T09:48:22Z</time>
      </trkpt>
      <trkpt lat="43.42037" lon="-0.54987">
        <ele>193.36</ele>
        <time>2017-01-07T09:48:32Z</time>
      </trkpt>
      <trkpt lat="43.42" lon="-0.55014">
        <ele>197.21</ele>
        <time>2017-01-07T09:48:48Z</time>
      </trkpt>
      <trkpt lat="43.41961" lon="-0.55007">
        <ele>199.13</ele>
        <time>2017-01-07T09:49:03Z</time>
      </trkpt>
      <trkpt lat="43.4191" lon="-0.55012">
        <ele>199.61</ele>
        <time>2017-01-07T09:49:21Z</time>
      </trkpt>
      <trkpt lat="43.41882" lon="-0.55016">
        <ele>201.05</ele>
        <time>2017-01-07T09:49:35Z</time>
      </trkpt>
      <trkpt lat="43.41852" lon="-0.55029">
        <ele>204.9</ele>
        <time>2017-01-07T09:49:52Z</time>
      </trkpt>
      <trkpt lat="43.41834" lon="-0.55053">
        <ele>208.26</ele>
        <time>2017-01-07T09:50:07Z</time>
      </trkpt>
      <trkpt lat="43.41823" lon="-0.55083">
        <ele>208.74</ele>
        <time>2017-01-07T09:50:17Z</time>
      </trkpt>
      <trkpt lat="43.41819" lon="-0.55088">
        <ele>207.78</ele>
        <time>2017-01-07T09:50:18Z</time>
      </trkpt>
      <trkpt lat="43.41814" lon="-0.55092">
        <ele>207.3</ele>
        <time>2017-01-07T09:50:19Z</time>
      </trkpt>
      <trkpt lat="43.41807" lon="-0.55096">
        <ele>206.34</ele>
        <time>2017-01-07T09:50:20Z</time>
      </trkpt>
      <trkpt lat="43.418" lon="-0.55099">
        <ele>205.38</ele>
        <time>2017-01-07T09:50:21Z</time>
      </trkpt>
      <trkpt lat="43.41792" lon="-0.55101">
        <ele>203.94</ele>
        <time>2017-01-07T09:50:22Z</time>
      </trkpt>
      <trkpt lat="43.41708" lon="-0.55134">
        <ele>194.32</ele>
        <time>2017-01-07T09:50:30Z</time>
      </trkpt>
      <trkpt lat="43.41655" lon="-0.55183">
        <ele>192.88</ele>
        <time>2017-01-07T09:50:36Z</time>
      </trkpt>
      <trkpt lat="43.4161" lon="-0.55216">
        <ele>191.92</ele>
        <time>2017-01-07T09:50:42Z</time>
      </trkpt>
      <trkpt lat="43.41604" lon="-0.55224">
        <ele>191.92</ele>
        <time>2017-01-07T09:50:43Z</time>
      </trkpt>
      <trkpt lat="43.41599" lon="-0.55231">
        <ele>191.44</ele>
        <time>2017-01-07T09:50:44Z</time>
      </trkpt>
      <trkpt lat="43.41537" lon="-0.55307">
        <ele>189.04</ele>
        <time>2017-01-07T09:50:56Z</time>
      </trkpt>
      <trkpt lat="43.41502" lon="-0.55328">
        <ele>188.56</ele>
        <time>2017-01-07T09:51:02Z</time>
      </trkpt>
      <trkpt lat="43.41496" lon="-0.5533">
        <ele>188.56</ele>
        <time>2017-01-07T09:51:03Z</time>
      </trkpt>
      <trkpt lat="43.4149" lon="-0.55331">
        <ele>188.56</ele>
        <time>2017-01-07T09:51:04Z</time>
      </trkpt>
      <trkpt lat="43.41485" lon="-0.5533">
        <ele>188.08</ele>
        <time>2017-01-07T09:51:05Z</time>
      </trkpt>
      <trkpt lat="43.4148" lon="-0.55328">
        <ele>188.08</ele>
        <time>2017-01-07T09:51:06Z</time>
      </trkpt>
      <trkpt lat="43.41463" lon="-0.55323">
        <ele>187.59</ele>
        <time>2017-01-07T09:51:16Z</time>
      </trkpt>
      <trkpt lat="43.41462" lon="-0.55324">
        <ele>187.59</ele>
        <time>2017-01-07T09:51:17Z</time>
      </trkpt>
      <trkpt lat="43.41461" lon="-0.55326">
        <ele>187.59</ele>
        <time>2017-01-07T09:51:18Z</time>
      </trkpt>
      <trkpt lat="43.4146" lon="-0.55328">
        <ele>187.59</ele>
        <time>2017-01-07T09:51:19Z</time>
      </trkpt>
      <trkpt lat="43.41459" lon="-0.55332">
        <ele>187.11</ele>
        <time>2017-01-07T09:51:20Z</time>
      </trkpt>
      <trkpt lat="43.4146" lon="-0.55337">
        <ele>186.63</ele>
        <time>2017-01-07T09:51:21Z</time>
      </trkpt>
      <trkpt lat="43.41456" lon="-0.55354">
        <ele>184.71</ele>
        <time>2017-01-07T09:51:26Z</time>
      </trkpt>
      <trkpt lat="43.41453" lon="-0.55355">
        <ele>184.71</ele>
        <time>2017-01-07T09:51:27Z</time>
      </trkpt>
      <trkpt lat="43.4145" lon="-0.55354">
        <ele>184.23</ele>
        <time>2017-01-07T09:51:28Z</time>
      </trkpt>
      <trkpt lat="43.41446" lon="-0.55351">
        <ele>183.75</ele>
        <time>2017-01-07T09:51:29Z</time>
      </trkpt>
      <trkpt lat="43.41442" lon="-0.55346">
        <ele>183.27</ele>
        <time>2017-01-07T09:51:30Z</time>
      </trkpt>
      <trkpt lat="43.41438" lon="-0.55341">
        <ele>182.31</ele>
        <time>2017-01-07T09:51:31Z</time>
      </trkpt>
      <trkpt lat="43.41432" lon="-0.55335">
        <ele>180.87</ele>
        <time>2017-01-07T09:51:32Z</time>
      </trkpt>
      <trkpt lat="43.41424" lon="-0.5533">
        <ele>178.94</ele>
        <time>2017-01-07T09:51:33Z</time>
      </trkpt>
      <trkpt lat="43.41416" lon="-0.55325">
        <ele>177.5</ele>
        <time>2017-01-07T09:51:34Z</time>
      </trkpt>
      <trkpt lat="43.41405" lon="-0.55322">
        <ele>175.58</ele>
        <time>2017-01-07T09:51:35Z</time>
      </trkpt>
      <trkpt lat="43.41394" lon="-0.55319">
        <ele>174.14</ele>
        <time>2017-01-07T09:51:36Z</time>
      </trkpt>
      <trkpt lat="43.41333" lon="-0.55318">
        <ele>164.52</ele>
        <time>2017-01-07T09:51:41Z</time>
      </trkpt>
      <trkpt lat="43.41322" lon="-0.55322">
        <ele>162.6</ele>
        <time>2017-01-07T09:51:42Z</time>
      </trkpt>
      <trkpt lat="43.41309" lon="-0.55329">
        <ele>160.68</ele>
        <time>2017-01-07T09:51:43Z</time>
      </trkpt>
      <trkpt lat="43.41298" lon="-0.55337">
        <ele>159.24</ele>
        <time>2017-01-07T09:51:44Z</time>
      </trkpt>
      <trkpt lat="43.41286" lon="-0.55346">
        <ele>157.79</ele>
        <time>2017-01-07T09:51:45Z</time>
      </trkpt>
      <trkpt lat="43.41178" lon="-0.554">
        <ele>147.7</ele>
        <time>2017-01-07T09:51:54Z</time>
      </trkpt>
      <trkpt lat="43.41167" lon="-0.5541">
        <ele>146.74</ele>
        <time>2017-01-07T09:51:55Z</time>
      </trkpt>
      <trkpt lat="43.41062" lon="-0.55538">
        <ele>140.49</ele>
        <time>2017-01-07T09:52:07Z</time>
      </trkpt>
      <trkpt lat="43.41056" lon="-0.55551">
        <ele>140.01</ele>
        <time>2017-01-07T09:52:08Z</time>
      </trkpt>
      <trkpt lat="43.41024" lon="-0.55623">
        <ele>139.05</ele>
        <time>2017-01-07T09:52:14Z</time>
      </trkpt>
      <trkpt lat="43.41017" lon="-0.55633">
        <ele>138.57</ele>
        <time>2017-01-07T09:52:15Z</time>
      </trkpt>
      <trkpt lat="43.4101" lon="-0.5564">
        <ele>138.57</ele>
        <time>2017-01-07T09:52:16Z</time>
      </trkpt>
      <trkpt lat="43.40906" lon="-0.5574">
        <ele>136.64</ele>
        <time>2017-01-07T09:52:30Z</time>
      </trkpt>
      <trkpt lat="43.40825" lon="-0.55808">
        <ele>137.13</ele>
        <time>2017-01-07T09:52:43Z</time>
      </trkpt>
      <trkpt lat="43.40807" lon="-0.55816">
        <ele>138.09</ele>
        <time>2017-01-07T09:52:47Z</time>
      </trkpt>
      <trkpt lat="43.40783" lon="-0.55824">
        <ele>139.05</ele>
        <time>2017-01-07T09:52:53Z</time>
      </trkpt>
      <trkpt lat="43.40779" lon="-0.55825">
        <ele>139.05</ele>
        <time>2017-01-07T09:52:54Z</time>
      </trkpt>
      <trkpt lat="43.40771" lon="-0.55827">
        <ele>139.53</ele>
        <time>2017-01-07T09:52:56Z</time>
      </trkpt>
      <trkpt lat="43.40768" lon="-0.55828">
        <ele>139.53</ele>
        <time>2017-01-07T09:52:57Z</time>
      </trkpt>
      <trkpt lat="43.40704" lon="-0.55863">
        <ele>142.89</ele>
        <time>2017-01-07T09:53:14Z</time>
      </trkpt>
      <trkpt lat="43.40653" lon="-0.55913">
        <ele>142.89</ele>
        <time>2017-01-07T09:53:30Z</time>
      </trkpt>
      <trkpt lat="43.40593" lon="-0.55974">
        <ele>140.49</ele>
        <time>2017-01-07T09:53:43Z</time>
      </trkpt>
      <trkpt lat="43.40505" lon="-0.56041">
        <ele>135.68</ele>
        <time>2017-01-07T09:53:56Z</time>
      </trkpt>
      <trkpt lat="43.40394" lon="-0.5611">
        <ele>135.2</ele>
        <time>2017-01-07T09:54:14Z</time>
      </trkpt>
      <trkpt lat="43.40388" lon="-0.56115">
        <ele>135.2</ele>
        <time>2017-01-07T09:54:15Z</time>
      </trkpt>
      <trkpt lat="43.40382" lon="-0.56121">
        <ele>135.2</ele>
        <time>2017-01-07T09:54:16Z</time>
      </trkpt>
      <trkpt lat="43.40332" lon="-0.56208">
        <ele>135.2</ele>
        <time>2017-01-07T09:54:28Z</time>
      </trkpt>
      <trkpt lat="43.4027" lon="-0.56316">
        <ele>135.2</ele>
        <time>2017-01-07T09:54:44Z</time>
      </trkpt>
      <trkpt lat="43.40233" lon="-0.56379">
        <ele>134.72</ele>
        <time>2017-01-07T09:54:55Z</time>
      </trkpt>
      <trkpt lat="43.40212" lon="-0.56417">
        <ele>134.72</ele>
        <time>2017-01-07T09:55:01Z</time>
      </trkpt>
      <trkpt lat="43.40158" lon="-0.56493">
        <ele>134.24</ele>
        <time>2017-01-07T09:55:15Z</time>
      </trkpt>
      <trkpt lat="43.40143" lon="-0.5651">
        <ele>134.24</ele>
        <time>2017-01-07T09:55:19Z</time>
      </trkpt>
      <trkpt lat="43.40141" lon="-0.56515">
        <ele>134.24</ele>
        <time>2017-01-07T09:55:20Z</time>
      </trkpt>
      <trkpt lat="43.40141" lon="-0.56521">
        <ele>134.24</ele>
        <time>2017-01-07T09:55:21Z</time>
      </trkpt>
      <trkpt lat="43.40144" lon="-0.56526">
        <ele>134.24</ele>
        <time>2017-01-07T09:55:22Z</time>
      </trkpt>
      <trkpt lat="43.40146" lon="-0.5653">
        <ele>134.24</ele>
        <time>2017-01-07T09:55:23Z</time>
      </trkpt>
      <trkpt lat="43.4015" lon="-0.56535">
        <ele>134.24</ele>
        <time>2017-01-07T09:55:24Z</time>
      </trkpt>
      <trkpt lat="43.40181" lon="-0.56581">
        <ele>133.76</ele>
        <time>2017-01-07T09:55:32Z</time>
      </trkpt>
      <trkpt lat="43.40183" lon="-0.56588">
        <ele>133.76</ele>
        <time>2017-01-07T09:55:33Z</time>
      </trkpt>
      <trkpt lat="43.40186" lon="-0.56596">
        <ele>133.76</ele>
        <time>2017-01-07T09:55:34Z</time>
      </trkpt>
      <trkpt lat="43.40187" lon="-0.56603">
        <ele>133.76</ele>
        <time>2017-01-07T09:55:35Z</time>
      </trkpt>
      <trkpt lat="43.40189" lon="-0.5661">
        <ele>133.76</ele>
        <time>2017-01-07T09:55:36Z</time>
      </trkpt>
      <trkpt lat="43.4019" lon="-0.56617">
        <ele>134.24</ele>
        <time>2017-01-07T09:55:37Z</time>
      </trkpt>
      <trkpt lat="43.40192" lon="-0.56765">
        <ele>133.28</ele>
        <time>2017-01-07T09:55:56Z</time>
      </trkpt>
      <trkpt lat="43.40187" lon="-0.56836">
        <ele>133.28</ele>
        <time>2017-01-07T09:56:05Z</time>
      </trkpt>
      <trkpt lat="43.40184" lon="-0.56843">
        <ele>133.28</ele>
        <time>2017-01-07T09:56:06Z</time>
      </trkpt>
      <trkpt lat="43.40177" lon="-0.56865">
        <ele>133.28</ele>
        <time>2017-01-07T09:56:09Z</time>
      </trkpt>
      <trkpt lat="43.40151" lon="-0.56935">
        <ele>132.8</ele>
        <time>2017-01-07T09:56:19Z</time>
      </trkpt>
      <trkpt lat="43.40148" lon="-0.5694">
        <ele>132.8</ele>
        <time>2017-01-07T09:56:20Z</time>
      </trkpt>
      <trkpt lat="43.40136" lon="-0.56968">
        <ele>132.8</ele>
        <time>2017-01-07T09:56:29Z</time>
      </trkpt>
      <trkpt lat="43.40134" lon="-0.56974">
        <ele>130.4</ele>
        <time>2017-01-07T09:56:41Z</time>
      </trkpt>
      <trkpt lat="43.40131" lon="-0.56977">
        <ele>130.4</ele>
        <time>2017-01-07T09:56:42Z</time>
      </trkpt>
      <trkpt lat="43.40071" lon="-0.57008">
        <ele>131.84</ele>
        <time>2017-01-07T09:56:55Z</time>
      </trkpt>
      <trkpt lat="43.40065" lon="-0.5701">
        <ele>131.36</ele>
        <time>2017-01-07T09:56:56Z</time>
      </trkpt>
      <trkpt lat="43.40059" lon="-0.5701">
        <ele>131.36</ele>
        <time>2017-01-07T09:56:57Z</time>
      </trkpt>
      <trkpt lat="43.40053" lon="-0.5701">
        <ele>131.36</ele>
        <time>2017-01-07T09:56:58Z</time>
      </trkpt>
      <trkpt lat="43.40047" lon="-0.57009">
        <ele>130.88</ele>
        <time>2017-01-07T09:56:59Z</time>
      </trkpt>
      <trkpt lat="43.4004" lon="-0.57006">
        <ele>130.4</ele>
        <time>2017-01-07T09:57:00Z</time>
      </trkpt>
      <trkpt lat="43.40032" lon="-0.57003">
        <ele>129.43</ele>
        <time>2017-01-07T09:57:01Z</time>
      </trkpt>
      <trkpt lat="43.40007" lon="-0.56993">
        <ele>126.55</ele>
        <time>2017-01-07T09:57:04Z</time>
      </trkpt>
      <trkpt lat="43.39998" lon="-0.56992">
        <ele>125.11</ele>
        <time>2017-01-07T09:57:05Z</time>
      </trkpt>
      <trkpt lat="43.39987" lon="-0.56994">
        <ele>124.15</ele>
        <time>2017-01-07T09:57:06Z</time>
      </trkpt>
      <trkpt lat="43.39922" lon="-0.57016">
        <ele>116.46</ele>
        <time>2017-01-07T09:57:14Z</time>
      </trkpt>
      <trkpt lat="43.39914" lon="-0.57025">
        <ele>115.01</ele>
        <time>2017-01-07T09:57:17Z</time>
      </trkpt>
      <trkpt lat="43.39912" lon="-0.57031">
        <ele>114.53</ele>
        <time>2017-01-07T09:57:18Z</time>
      </trkpt>
      <trkpt lat="43.3991" lon="-0.5704">
        <ele>114.53</ele>
        <time>2017-01-07T09:57:19Z</time>
      </trkpt>
      <trkpt lat="43.3991" lon="-0.57047">
        <ele>114.05</ele>
        <time>2017-01-07T09:57:20Z</time>
      </trkpt>
      <trkpt lat="43.39911" lon="-0.57055">
        <ele>114.05</ele>
        <time>2017-01-07T09:57:21Z</time>
      </trkpt>
      <trkpt lat="43.39911" lon="-0.57064">
        <ele>113.57</ele>
        <time>2017-01-07T09:57:22Z</time>
      </trkpt>
      <trkpt lat="43.39921" lon="-0.572">
        <ele>110.21</ele>
        <time>2017-01-07T09:57:38Z</time>
      </trkpt>
      <trkpt lat="43.39935" lon="-0.57331">
        <ele>108.77</ele>
        <time>2017-01-07T09:57:53Z</time>
      </trkpt>
      <trkpt lat="43.39937" lon="-0.5734">
        <ele>108.77</ele>
        <time>2017-01-07T09:57:54Z</time>
      </trkpt>
      <trkpt lat="43.39938" lon="-0.57348">
        <ele>108.29</ele>
        <time>2017-01-07T09:57:55Z</time>
      </trkpt>
      <trkpt lat="43.39947" lon="-0.57456">
        <ele>107.81</ele>
        <time>2017-01-07T09:58:07Z</time>
      </trkpt>
      <trkpt lat="43.39949" lon="-0.57472">
        <ele>107.81</ele>
        <time>2017-01-07T09:58:09Z</time>
      </trkpt>
      <trkpt lat="43.39969" lon="-0.57619">
        <ele>108.29</ele>
        <time>2017-01-07T09:58:26Z</time>
      </trkpt>
      <trkpt lat="43.39976" lon="-0.57687">
        <ele>110.21</ele>
        <time>2017-01-07T09:58:38Z</time>
      </trkpt>
      <trkpt lat="43.39974" lon="-0.57691">
        <ele>110.21</ele>
        <time>2017-01-07T09:58:39Z</time>
      </trkpt>
      <trkpt lat="43.39972" lon="-0.57694">
        <ele>110.21</ele>
        <time>2017-01-07T09:58:40Z</time>
      </trkpt>
      <trkpt lat="43.39968" lon="-0.57697">
        <ele>110.69</ele>
        <time>2017-01-07T09:58:41Z</time>
      </trkpt>
      <trkpt lat="43.39965" lon="-0.57699">
        <ele>110.21</ele>
        <time>2017-01-07T09:58:42Z</time>
      </trkpt>
      <trkpt lat="43.3996" lon="-0.57701">
        <ele>110.21</ele>
        <time>2017-01-07T09:58:43Z</time>
      </trkpt>
      <trkpt lat="43.3987" lon="-0.57739">
        <ele>110.69</ele>
        <time>2017-01-07T09:59:01Z</time>
      </trkpt>
      <trkpt lat="43.39866" lon="-0.57742">
        <ele>110.69</ele>
        <time>2017-01-07T09:59:02Z</time>
      </trkpt>
      <trkpt lat="43.39862" lon="-0.57745">
        <ele>110.69</ele>
        <time>2017-01-07T09:59:03Z</time>
      </trkpt>
      <trkpt lat="43.3986" lon="-0.5775">
        <ele>110.69</ele>
        <time>2017-01-07T09:59:04Z</time>
      </trkpt>
      <trkpt lat="43.39859" lon="-0.57757">
        <ele>110.69</ele>
        <time>2017-01-07T09:59:05Z</time>
      </trkpt>
      <trkpt lat="43.3986" lon="-0.57763">
        <ele>110.69</ele>
        <time>2017-01-07T09:59:06Z</time>
      </trkpt>
      <trkpt lat="43.39862" lon="-0.57769">
        <ele>110.69</ele>
        <time>2017-01-07T09:59:07Z</time>
      </trkpt>
      <trkpt lat="43.39865" lon="-0.57776">
        <ele>110.69</ele>
        <time>2017-01-07T09:59:08Z</time>
      </trkpt>
      <trkpt lat="43.39868" lon="-0.57781">
        <ele>110.69</ele>
        <time>2017-01-07T09:59:09Z</time>
      </trkpt>
      <trkpt lat="43.39878" lon="-0.57798">
        <ele>110.69</ele>
        <time>2017-01-07T09:59:12Z</time>
      </trkpt>
      <trkpt lat="43.3989" lon="-0.57833">
        <ele>109.73</ele>
        <time>2017-01-07T09:59:17Z</time>
      </trkpt>
      <trkpt lat="43.39893" lon="-0.5784">
        <ele>109.73</ele>
        <time>2017-01-07T09:59:18Z</time>
      </trkpt>
      <trkpt lat="43.39914" lon="-0.57905">
        <ele>108.77</ele>
        <time>2017-01-07T09:59:27Z</time>
      </trkpt>
      <trkpt lat="43.39917" lon="-0.57912">
        <ele>108.77</ele>
        <time>2017-01-07T09:59:28Z</time>
      </trkpt>
      <trkpt lat="43.3997" lon="-0.58059">
        <ele>108.29</ele>
        <time>2017-01-07T09:59:48Z</time>
      </trkpt>
      <trkpt lat="43.39992" lon="-0.58113">
        <ele>108.77</ele>
        <time>2017-01-07T09:59:57Z</time>
      </trkpt>
      <trkpt lat="43.39998" lon="-0.58132">
        <ele>108.77</ele>
        <time>2017-01-07T10:00:02Z</time>
      </trkpt>
      <trkpt lat="43.40003" lon="-0.58133">
        <ele>107.81</ele>
        <time>2017-01-07T10:00:09Z</time>
      </trkpt>
      <trkpt lat="43.40006" lon="-0.58133">
        <ele>107.81</ele>
        <time>2017-01-07T10:00:10Z</time>
      </trkpt>
      <trkpt lat="43.40008" lon="-0.58132">
        <ele>107.81</ele>
        <time>2017-01-07T10:00:11Z</time>
      </trkpt>
      <trkpt lat="43.4006" lon="-0.58101">
        <ele>107.32</ele>
        <time>2017-01-07T10:00:22Z</time>
      </trkpt>
      <trkpt lat="43.4008" lon="-0.58091">
        <ele>107.32</ele>
        <time>2017-01-07T10:00:26Z</time>
      </trkpt>
      <trkpt lat="43.40083" lon="-0.58087">
        <ele>107.32</ele>
        <time>2017-01-07T10:00:27Z</time>
      </trkpt>
      <trkpt lat="43.40085" lon="-0.58082">
        <ele>107.32</ele>
        <time>2017-01-07T10:00:28Z</time>
      </trkpt>
      <trkpt lat="43.40086" lon="-0.58077">
        <ele>107.32</ele>
        <time>2017-01-07T10:00:29Z</time>
      </trkpt>
      <trkpt lat="43.40086" lon="-0.58071">
        <ele>107.32</ele>
        <time>2017-01-07T10:00:30Z</time>
      </trkpt>
      <trkpt lat="43.40084" lon="-0.58065">
        <ele>107.32</ele>
        <time>2017-01-07T10:00:31Z</time>
      </trkpt>
      <trkpt lat="43.40083" lon="-0.58059">
        <ele>107.32</ele>
        <time>2017-01-07T10:00:32Z</time>
      </trkpt>
      <trkpt lat="43.40076" lon="-0.58012">
        <ele>106.84</ele>
        <time>2017-01-07T10:00:41Z</time>
      </trkpt>
      <trkpt lat="43.40077" lon="-0.58009">
        <ele>107.32</ele>
        <time>2017-01-07T10:00:42Z</time>
      </trkpt>
      <trkpt lat="43.40084" lon="-0.58">
        <ele>108.29</ele>
        <time>2017-01-07T10:00:49Z</time>
      </trkpt>
    </trkseg>
  </trk>
</gpx>